<?xml version="1.0" encoding="UTF-8"?>
<gpx xmlns="http://www.topografix.com/GPX/1/1" xmlns:xsi="http://www.w3.org/2001/XMLSchema-instance" version="1.1" xsi:schemaLocation="http://www.topografix.com/GPX/1/1 http://www.topografix.com/GPX/1/1/gpx.xsd">
  <metadata>
    <name>Diamond In The Rough Triathlon 2022 - Olympic Aquabike</name>
  </metadata>
  <trk>
    <name>Diamond In The Rough Triathlon 2022 - Olympic Aquabike</name>
    <trkseg>
      <trkpt lat="39.548384" lon="-76.050825">
        <ele>3.795133</ele>
        <time>2024-07-13T08:00:00.000Z</time>
      </trkpt>
      <trkpt lat="39.548395" lon="-76.050845">
        <ele>3.795129</ele>
        <time>2024-07-13T08:00:00.000Z</time>
      </trkpt>
      <trkpt lat="39.548416" lon="-76.050847">
        <ele>3.795123</ele>
        <time>2024-07-13T08:00:00.000Z</time>
      </trkpt>
      <trkpt lat="39.5488" lon="-76.050976">
        <ele>3.795123</ele>
        <time>2024-07-13T08:00:04.000Z</time>
      </trkpt>
      <trkpt lat="39.548913" lon="-76.051089">
        <ele>3.795127</ele>
        <time>2024-07-13T08:00:06.000Z</time>
      </trkpt>
      <trkpt lat="39.549099" lon="-76.051721">
        <ele>3.806237</ele>
        <time>2024-07-13T08:00:12.000Z</time>
      </trkpt>
      <trkpt lat="39.549343" lon="-76.052088">
        <ele>3.827193</ele>
        <time>2024-07-13T08:00:16.000Z</time>
      </trkpt>
      <trkpt lat="39.550144" lon="-76.052501">
        <ele>3.875177</ele>
        <time>2024-07-13T08:00:26.000Z</time>
      </trkpt>
      <trkpt lat="39.550206" lon="-76.052695">
        <ele>3.883886</ele>
        <time>2024-07-13T08:00:28.000Z</time>
      </trkpt>
      <trkpt lat="39.550208" lon="-76.053263">
        <ele>3.866454</ele>
        <time>2024-07-13T08:00:33.000Z</time>
      </trkpt>
      <trkpt lat="39.55036" lon="-76.053686">
        <ele>3.819503</ele>
        <time>2024-07-13T08:00:37.000Z</time>
      </trkpt>
      <trkpt lat="39.550615" lon="-76.053846">
        <ele>3.782825</ele>
        <time>2024-07-13T08:00:40.000Z</time>
      </trkpt>
      <trkpt lat="39.550902" lon="-76.053794">
        <ele>3.744411</ele>
        <time>2024-07-13T08:00:43.000Z</time>
      </trkpt>
      <trkpt lat="39.55105" lon="-76.053629">
        <ele>3.720066</ele>
        <time>2024-07-13T08:00:45.000Z</time>
      </trkpt>
      <trkpt lat="39.551126" lon="-76.053405">
        <ele>3.695732</ele>
        <time>2024-07-13T08:00:47.000Z</time>
      </trkpt>
      <trkpt lat="39.55121" lon="-76.053164">
        <ele>3.668508</ele>
        <time>2024-07-13T08:00:49.000Z</time>
      </trkpt>
      <trkpt lat="39.551278" lon="-76.053122">
        <ele>3.68593</ele>
        <time>2024-07-13T08:00:50.000Z</time>
      </trkpt>
      <trkpt lat="39.551792" lon="-76.053092">
        <ele>3.946306</ele>
        <time>2024-07-13T08:00:56.000Z</time>
      </trkpt>
      <trkpt lat="39.551912" lon="-76.053164">
        <ele>4.013083</ele>
        <time>2024-07-13T08:00:57.000Z</time>
      </trkpt>
      <trkpt lat="39.55211" lon="-76.05354">
        <ele>4.184112</ele>
        <time>2024-07-13T08:01:01.000Z</time>
      </trkpt>
      <trkpt lat="39.552465" lon="-76.05374">
        <ele>4.376707</ele>
        <time>2024-07-13T08:01:05.000Z</time>
      </trkpt>
      <trkpt lat="39.55285" lon="-76.054177">
        <ele>4.685875</ele>
        <time>2024-07-13T08:01:11.000Z</time>
      </trkpt>
      <trkpt lat="39.553108" lon="-76.054537">
        <ele>5.030303</ele>
        <time>2024-07-13T08:01:15.000Z</time>
      </trkpt>
      <trkpt lat="39.55308" lon="-76.054977">
        <ele>5.328533</ele>
        <time>2024-07-13T08:01:19.000Z</time>
      </trkpt>
      <trkpt lat="39.553352" lon="-76.055639">
        <ele>5.851657</ele>
        <time>2024-07-13T08:01:25.000Z</time>
      </trkpt>
      <trkpt lat="39.553519" lon="-76.055847">
        <ele>6.051746</ele>
        <time>2024-07-13T08:01:28.000Z</time>
      </trkpt>
      <trkpt lat="39.554303" lon="-76.056445">
        <ele>6.78036</ele>
        <time>2024-07-13T08:01:38.000Z</time>
      </trkpt>
      <trkpt lat="39.554523" lon="-76.056898">
        <ele>7.094966</ele>
        <time>2024-07-13T08:01:43.000Z</time>
      </trkpt>
      <trkpt lat="39.554608" lon="-76.057453">
        <ele>7.438183</ele>
        <time>2024-07-13T08:01:48.000Z</time>
      </trkpt>
      <trkpt lat="39.554849" lon="-76.058152">
        <ele>8.085876</ele>
        <time>2024-07-13T08:01:55.000Z</time>
      </trkpt>
      <trkpt lat="39.554972" lon="-76.058579">
        <ele>8.535823</ele>
        <time>2024-07-13T08:01:59.000Z</time>
      </trkpt>
      <trkpt lat="39.555016" lon="-76.058874">
        <ele>8.831814</ele>
        <time>2024-07-13T08:02:02.000Z</time>
      </trkpt>
      <trkpt lat="39.554937" lon="-76.059514">
        <ele>9.457818</ele>
        <time>2024-07-13T08:02:08.000Z</time>
      </trkpt>
      <trkpt lat="39.554667" lon="-76.06076">
        <ele>9.885183</ele>
        <time>2024-07-13T08:02:19.000Z</time>
      </trkpt>
      <trkpt lat="39.555694" lon="-76.063469">
        <ele>8.889977</ele>
        <time>2024-07-13T08:02:45.000Z</time>
      </trkpt>
      <trkpt lat="39.555966" lon="-76.064057">
        <ele>8.439938</ele>
        <time>2024-07-13T08:02:51.000Z</time>
      </trkpt>
      <trkpt lat="39.556155" lon="-76.063949">
        <ele>8.357291</ele>
        <time>2024-07-13T08:02:53.000Z</time>
      </trkpt>
      <trkpt lat="39.556686" lon="-76.063941">
        <ele>8.26414</ele>
        <time>2024-07-13T08:02:59.000Z</time>
      </trkpt>
      <trkpt lat="39.556989" lon="-76.063895">
        <ele>8.211089</ele>
        <time>2024-07-13T08:03:02.000Z</time>
      </trkpt>
      <trkpt lat="39.557121" lon="-76.063839">
        <ele>8.187034</ele>
        <time>2024-07-13T08:03:04.000Z</time>
      </trkpt>
      <trkpt lat="39.557436" lon="-76.063624">
        <ele>8.126444</ele>
        <time>2024-07-13T08:03:08.000Z</time>
      </trkpt>
      <trkpt lat="39.557935" lon="-76.063017">
        <ele>8.902811</ele>
        <time>2024-07-13T08:03:16.000Z</time>
      </trkpt>
      <trkpt lat="39.558249" lon="-76.062577">
        <ele>9.946587</ele>
        <time>2024-07-13T08:03:21.000Z</time>
      </trkpt>
      <trkpt lat="39.558745" lon="-76.062981">
        <ele>11.292062</ele>
        <time>2024-07-13T08:03:28.000Z</time>
      </trkpt>
      <trkpt lat="39.56025" lon="-76.063703">
        <ele>14.373405</ele>
        <time>2024-07-13T08:03:46.000Z</time>
      </trkpt>
      <trkpt lat="39.561048" lon="-76.064087">
        <ele>15.399789</ele>
        <time>2024-07-13T08:03:55.000Z</time>
      </trkpt>
      <trkpt lat="39.562206" lon="-76.064651">
        <ele>15.126625</ele>
        <time>2024-07-13T08:04:09.000Z</time>
      </trkpt>
      <trkpt lat="39.562381" lon="-76.064749">
        <ele>15.085779</ele>
        <time>2024-07-13T08:04:11.000Z</time>
      </trkpt>
      <trkpt lat="39.563006" lon="-76.065051">
        <ele>14.675839</ele>
        <time>2024-07-13T08:04:18.000Z</time>
      </trkpt>
      <trkpt lat="39.562659" lon="-76.065787">
        <ele>14.210835</ele>
        <time>2024-07-13T08:04:25.000Z</time>
      </trkpt>
      <trkpt lat="39.562569" lon="-76.065997">
        <ele>14.088224</ele>
        <time>2024-07-13T08:04:27.000Z</time>
      </trkpt>
      <trkpt lat="39.562569" lon="-76.066022">
        <ele>14.068834</ele>
        <time>2024-07-13T08:04:27.000Z</time>
      </trkpt>
      <trkpt lat="39.562501" lon="-76.066175">
        <ele>13.974017</ele>
        <time>2024-07-13T08:04:29.000Z</time>
      </trkpt>
      <trkpt lat="39.562121" lon="-76.066984">
        <ele>13.985874</ele>
        <time>2024-07-13T08:04:37.000Z</time>
      </trkpt>
      <trkpt lat="39.562023" lon="-76.067169">
        <ele>14.051313</ele>
        <time>2024-07-13T08:04:39.000Z</time>
      </trkpt>
      <trkpt lat="39.561945" lon="-76.067361">
        <ele>14.114876</ele>
        <time>2024-07-13T08:04:41.000Z</time>
      </trkpt>
      <trkpt lat="39.561398" lon="-76.06856">
        <ele>14.500395</ele>
        <time>2024-07-13T08:04:53.000Z</time>
      </trkpt>
      <trkpt lat="39.561197" lon="-76.068971">
        <ele>14.523534</ele>
        <time>2024-07-13T08:04:57.000Z</time>
      </trkpt>
      <trkpt lat="39.560758" lon="-76.069917">
        <ele>14.576719</ele>
        <time>2024-07-13T08:05:06.000Z</time>
      </trkpt>
      <trkpt lat="39.56073" lon="-76.069973">
        <ele>14.579754</ele>
        <time>2024-07-13T08:05:07.000Z</time>
      </trkpt>
      <trkpt lat="39.560395" lon="-76.070668">
        <ele>14.49234</ele>
        <time>2024-07-13T08:05:14.000Z</time>
      </trkpt>
      <trkpt lat="39.560341" lon="-76.070798">
        <ele>14.428381</ele>
        <time>2024-07-13T08:05:15.000Z</time>
      </trkpt>
      <trkpt lat="39.560325" lon="-76.070868">
        <ele>14.398556</ele>
        <time>2024-07-13T08:05:16.000Z</time>
      </trkpt>
      <trkpt lat="39.560232" lon="-76.071047">
        <ele>14.303471</ele>
        <time>2024-07-13T08:05:18.000Z</time>
      </trkpt>
      <trkpt lat="39.560201" lon="-76.071119">
        <ele>14.271218</ele>
        <time>2024-07-13T08:05:19.000Z</time>
      </trkpt>
      <trkpt lat="39.560136" lon="-76.071262">
        <ele>14.200555</ele>
        <time>2024-07-13T08:05:20.000Z</time>
      </trkpt>
      <trkpt lat="39.560119" lon="-76.071295">
        <ele>14.185595</ele>
        <time>2024-07-13T08:05:20.000Z</time>
      </trkpt>
      <trkpt lat="39.560058" lon="-76.071447">
        <ele>14.109654</ele>
        <time>2024-07-13T08:05:21.000Z</time>
      </trkpt>
      <trkpt lat="39.559998" lon="-76.071579">
        <ele>14.048171</ele>
        <time>2024-07-13T08:05:22.000Z</time>
      </trkpt>
      <trkpt lat="39.559943" lon="-76.071669">
        <ele>13.996571</ele>
        <time>2024-07-13T08:05:23.000Z</time>
      </trkpt>
      <trkpt lat="39.559875" lon="-76.071838">
        <ele>13.910975</ele>
        <time>2024-07-13T08:05:25.000Z</time>
      </trkpt>
      <trkpt lat="39.55971" lon="-76.07218">
        <ele>13.743568</ele>
        <time>2024-07-13T08:05:28.000Z</time>
      </trkpt>
      <trkpt lat="39.559662" lon="-76.072293">
        <ele>13.694204</ele>
        <time>2024-07-13T08:05:29.000Z</time>
      </trkpt>
      <trkpt lat="39.559495" lon="-76.072674">
        <ele>13.495626</ele>
        <time>2024-07-13T08:05:33.000Z</time>
      </trkpt>
      <trkpt lat="39.559334" lon="-76.072987">
        <ele>13.334066</ele>
        <time>2024-07-13T08:05:36.000Z</time>
      </trkpt>
      <trkpt lat="39.559173" lon="-76.073357">
        <ele>13.151295</ele>
        <time>2024-07-13T08:05:40.000Z</time>
      </trkpt>
      <trkpt lat="39.559023" lon="-76.073664">
        <ele>12.991439</ele>
        <time>2024-07-13T08:05:43.000Z</time>
      </trkpt>
      <trkpt lat="39.558875" lon="-76.073967">
        <ele>12.835075</ele>
        <time>2024-07-13T08:05:46.000Z</time>
      </trkpt>
      <trkpt lat="39.558429" lon="-76.074965">
        <ele>12.066308</ele>
        <time>2024-07-13T08:05:56.000Z</time>
      </trkpt>
      <trkpt lat="39.558051" lon="-76.075769">
        <ele>11.227801</ele>
        <time>2024-07-13T08:06:04.000Z</time>
      </trkpt>
      <trkpt lat="39.557959" lon="-76.07597">
        <ele>11.015489</ele>
        <time>2024-07-13T08:06:06.000Z</time>
      </trkpt>
      <trkpt lat="39.557721" lon="-76.076489">
        <ele>10.485259</ele>
        <time>2024-07-13T08:06:11.000Z</time>
      </trkpt>
      <trkpt lat="39.557465" lon="-76.077074">
        <ele>9.80095</ele>
        <time>2024-07-13T08:06:17.000Z</time>
      </trkpt>
      <trkpt lat="39.557423" lon="-76.077156">
        <ele>9.702203</ele>
        <time>2024-07-13T08:06:18.000Z</time>
      </trkpt>
      <trkpt lat="39.557278" lon="-76.07748">
        <ele>9.337433</ele>
        <time>2024-07-13T08:06:21.000Z</time>
      </trkpt>
      <trkpt lat="39.557321" lon="-76.077513">
        <ele>9.268509</ele>
        <time>2024-07-13T08:06:22.000Z</time>
      </trkpt>
      <trkpt lat="39.557771" lon="-76.077864">
        <ele>8.589117</ele>
        <time>2024-07-13T08:06:28.000Z</time>
      </trkpt>
      <trkpt lat="39.558293" lon="-76.078277">
        <ele>7.979797</ele>
        <time>2024-07-13T08:06:35.000Z</time>
      </trkpt>
      <trkpt lat="39.558735" lon="-76.078642">
        <ele>7.619309</ele>
        <time>2024-07-13T08:06:41.000Z</time>
      </trkpt>
      <trkpt lat="39.559226" lon="-76.078844">
        <ele>7.270802</ele>
        <time>2024-07-13T08:06:47.000Z</time>
      </trkpt>
      <trkpt lat="39.560405" lon="-76.079252">
        <ele>6.978514</ele>
        <time>2024-07-13T08:07:01.000Z</time>
      </trkpt>
      <trkpt lat="39.560658" lon="-76.079273">
        <ele>6.985144</ele>
        <time>2024-07-13T08:07:04.000Z</time>
      </trkpt>
      <trkpt lat="39.561584" lon="-76.079198">
        <ele>7.029186</ele>
        <time>2024-07-13T08:07:14.000Z</time>
      </trkpt>
      <trkpt lat="39.562152" lon="-76.079157">
        <ele>7.116334</ele>
        <time>2024-07-13T08:07:20.000Z</time>
      </trkpt>
      <trkpt lat="39.562944" lon="-76.079075">
        <ele>7.238968</ele>
        <time>2024-07-13T08:07:29.000Z</time>
      </trkpt>
      <trkpt lat="39.563364" lon="-76.07903">
        <ele>7.296515</ele>
        <time>2024-07-13T08:07:34.000Z</time>
      </trkpt>
      <trkpt lat="39.564906" lon="-76.078613">
        <ele>7.442083</ele>
        <time>2024-07-13T08:07:52.000Z</time>
      </trkpt>
      <trkpt lat="39.566659" lon="-76.078395">
        <ele>7.712538</ele>
        <time>2024-07-13T08:08:12.000Z</time>
      </trkpt>
      <trkpt lat="39.56682" lon="-76.078374">
        <ele>7.739241</ele>
        <time>2024-07-13T08:08:14.000Z</time>
      </trkpt>
      <trkpt lat="39.567253" lon="-76.078362">
        <ele>7.847409</ele>
        <time>2024-07-13T08:08:19.000Z</time>
      </trkpt>
      <trkpt lat="39.567448" lon="-76.078366">
        <ele>7.895846</ele>
        <time>2024-07-13T08:08:21.000Z</time>
      </trkpt>
      <trkpt lat="39.568946" lon="-76.078453">
        <ele>8.450767</ele>
        <time>2024-07-13T08:08:38.000Z</time>
      </trkpt>
      <trkpt lat="39.569277" lon="-76.078387">
        <ele>8.705088</ele>
        <time>2024-07-13T08:08:42.000Z</time>
      </trkpt>
      <trkpt lat="39.569915" lon="-76.077936">
        <ele>9.250759</ele>
        <time>2024-07-13T08:08:50.000Z</time>
      </trkpt>
      <trkpt lat="39.570757" lon="-76.078428">
        <ele>10.191893</ele>
        <time>2024-07-13T08:09:00.000Z</time>
      </trkpt>
      <trkpt lat="39.573562" lon="-76.08011">
        <ele>14.974784</ele>
        <time>2024-07-13T08:09:34.000Z</time>
      </trkpt>
      <trkpt lat="39.574003" lon="-76.079129">
        <ele>18.598184</ele>
        <time>2024-07-13T08:09:44.000Z</time>
      </trkpt>
      <trkpt lat="39.573977" lon="-76.078954">
        <ele>19.135224</ele>
        <time>2024-07-13T08:09:46.000Z</time>
      </trkpt>
      <trkpt lat="39.573869" lon="-76.078691">
        <ele>20.104742</ele>
        <time>2024-07-13T08:09:49.000Z</time>
      </trkpt>
      <trkpt lat="39.573373" lon="-76.07772">
        <ele>22.826712</ele>
        <time>2024-07-13T08:09:59.000Z</time>
      </trkpt>
      <trkpt lat="39.573339" lon="-76.077459">
        <ele>23.156295</ele>
        <time>2024-07-13T08:10:01.000Z</time>
      </trkpt>
      <trkpt lat="39.573824" lon="-76.071042">
        <ele>30.590204</ele>
        <time>2024-07-13T08:10:56.000Z</time>
      </trkpt>
      <trkpt lat="39.573858" lon="-76.070366">
        <ele>31.995231</ele>
        <time>2024-07-13T08:11:02.000Z</time>
      </trkpt>
      <trkpt lat="39.57391" lon="-76.070107">
        <ele>32.549036</ele>
        <time>2024-07-13T08:11:04.000Z</time>
      </trkpt>
      <trkpt lat="39.574077" lon="-76.069885">
        <ele>33.171583</ele>
        <time>2024-07-13T08:11:07.000Z</time>
      </trkpt>
      <trkpt lat="39.57455" lon="-76.069519">
        <ele>34.62391</ele>
        <time>2024-07-13T08:11:13.000Z</time>
      </trkpt>
      <trkpt lat="39.574718" lon="-76.069385">
        <ele>35.228905</ele>
        <time>2024-07-13T08:11:15.000Z</time>
      </trkpt>
      <trkpt lat="39.575457" lon="-76.06878">
        <ele>38.467757</ele>
        <time>2024-07-13T08:11:25.000Z</time>
      </trkpt>
      <trkpt lat="39.57618" lon="-76.068223">
        <ele>41.54886</ele>
        <time>2024-07-13T08:11:34.000Z</time>
      </trkpt>
      <trkpt lat="39.57716" lon="-76.067436">
        <ele>44.24059</ele>
        <time>2024-07-13T08:11:47.000Z</time>
      </trkpt>
      <trkpt lat="39.577211" lon="-76.067402">
        <ele>44.381236</ele>
        <time>2024-07-13T08:11:48.000Z</time>
      </trkpt>
      <trkpt lat="39.577363" lon="-76.067142">
        <ele>44.98023</ele>
        <time>2024-07-13T08:11:51.000Z</time>
      </trkpt>
      <trkpt lat="39.579773" lon="-76.067107">
        <ele>51.045289</ele>
        <time>2024-07-13T08:12:18.000Z</time>
      </trkpt>
      <trkpt lat="39.581355" lon="-76.067107">
        <ele>57.733307</ele>
        <time>2024-07-13T08:12:36.000Z</time>
      </trkpt>
      <trkpt lat="39.581816" lon="-76.067073">
        <ele>59.729205</ele>
        <time>2024-07-13T08:12:41.000Z</time>
      </trkpt>
      <trkpt lat="39.582498" lon="-76.066874">
        <ele>62.781946</ele>
        <time>2024-07-13T08:12:49.000Z</time>
      </trkpt>
      <trkpt lat="39.582659" lon="-76.066782">
        <ele>63.52905</ele>
        <time>2024-07-13T08:12:51.000Z</time>
      </trkpt>
      <trkpt lat="39.582827" lon="-76.066712">
        <ele>64.290312</ele>
        <time>2024-07-13T08:12:53.000Z</time>
      </trkpt>
      <trkpt lat="39.583357" lon="-76.06649">
        <ele>66.524431</ele>
        <time>2024-07-13T08:12:59.000Z</time>
      </trkpt>
      <trkpt lat="39.583667" lon="-76.066355">
        <ele>67.744651</ele>
        <time>2024-07-13T08:13:03.000Z</time>
      </trkpt>
      <trkpt lat="39.583994" lon="-76.066205">
        <ele>69.137004</ele>
        <time>2024-07-13T08:13:07.000Z</time>
      </trkpt>
      <trkpt lat="39.584065" lon="-76.066175">
        <ele>69.416201</ele>
        <time>2024-07-13T08:13:08.000Z</time>
      </trkpt>
      <trkpt lat="39.585071" lon="-76.065731">
        <ele>73.694043</ele>
        <time>2024-07-13T08:13:20.000Z</time>
      </trkpt>
      <trkpt lat="39.585381" lon="-76.065588">
        <ele>75.240259</ele>
        <time>2024-07-13T08:13:24.000Z</time>
      </trkpt>
      <trkpt lat="39.585562" lon="-76.065525">
        <ele>76.085511</ele>
        <time>2024-07-13T08:13:26.000Z</time>
      </trkpt>
      <trkpt lat="39.586345" lon="-76.065164">
        <ele>79.949837</ele>
        <time>2024-07-13T08:13:35.000Z</time>
      </trkpt>
      <trkpt lat="39.586735" lon="-76.064919">
        <ele>81.410671</ele>
        <time>2024-07-13T08:13:40.000Z</time>
      </trkpt>
      <trkpt lat="39.587172" lon="-76.064602">
        <ele>82.927828</ele>
        <time>2024-07-13T08:13:46.000Z</time>
      </trkpt>
      <trkpt lat="39.587329" lon="-76.064488">
        <ele>83.468032</ele>
        <time>2024-07-13T08:13:48.000Z</time>
      </trkpt>
      <trkpt lat="39.587362" lon="-76.064457">
        <ele>83.614926</ele>
        <time>2024-07-13T08:13:48.000Z</time>
      </trkpt>
      <trkpt lat="39.587431" lon="-76.064348">
        <ele>83.946773</ele>
        <time>2024-07-13T08:13:49.000Z</time>
      </trkpt>
      <trkpt lat="39.587631" lon="-76.064154">
        <ele>84.680064</ele>
        <time>2024-07-13T08:13:52.000Z</time>
      </trkpt>
      <trkpt lat="39.588114" lon="-76.063785">
        <ele>85.96943</ele>
        <time>2024-07-13T08:13:58.000Z</time>
      </trkpt>
      <trkpt lat="39.590207" lon="-76.061961">
        <ele>86.421853</ele>
        <time>2024-07-13T08:14:26.000Z</time>
      </trkpt>
      <trkpt lat="39.590895" lon="-76.061588">
        <ele>86.248454</ele>
        <time>2024-07-13T08:14:34.000Z</time>
      </trkpt>
      <trkpt lat="39.591269" lon="-76.061433">
        <ele>86.031815</ele>
        <time>2024-07-13T08:14:38.000Z</time>
      </trkpt>
      <trkpt lat="39.591722" lon="-76.061275">
        <ele>85.64864</ele>
        <time>2024-07-13T08:14:43.000Z</time>
      </trkpt>
      <trkpt lat="39.592076" lon="-76.061154">
        <ele>85.366106</ele>
        <time>2024-07-13T08:14:47.000Z</time>
      </trkpt>
      <trkpt lat="39.592361" lon="-76.061067">
        <ele>85.137875</ele>
        <time>2024-07-13T08:14:50.000Z</time>
      </trkpt>
      <trkpt lat="39.593252" lon="-76.06081">
        <ele>84.703987</ele>
        <time>2024-07-13T08:15:00.000Z</time>
      </trkpt>
      <trkpt lat="39.594312" lon="-76.060808">
        <ele>84.53266</ele>
        <time>2024-07-13T08:15:12.000Z</time>
      </trkpt>
      <trkpt lat="39.594502" lon="-76.060812">
        <ele>84.50155</ele>
        <time>2024-07-13T08:15:14.000Z</time>
      </trkpt>
      <trkpt lat="39.594593" lon="-76.060807">
        <ele>84.507962</ele>
        <time>2024-07-13T08:15:15.000Z</time>
      </trkpt>
      <trkpt lat="39.595102" lon="-76.060824">
        <ele>84.977766</ele>
        <time>2024-07-13T08:15:21.000Z</time>
      </trkpt>
      <trkpt lat="39.595947" lon="-76.060879">
        <ele>85.784111</ele>
        <time>2024-07-13T08:15:30.000Z</time>
      </trkpt>
      <trkpt lat="39.596464" lon="-76.061083">
        <ele>86.254776</ele>
        <time>2024-07-13T08:15:36.000Z</time>
      </trkpt>
      <trkpt lat="39.598005" lon="-76.061249">
        <ele>87.012825</ele>
        <time>2024-07-13T08:15:53.000Z</time>
      </trkpt>
      <trkpt lat="39.598771" lon="-76.061585">
        <ele>89.244224</ele>
        <time>2024-07-13T08:16:02.000Z</time>
      </trkpt>
      <trkpt lat="39.599265" lon="-76.061804">
        <ele>90.972871</ele>
        <time>2024-07-13T08:16:08.000Z</time>
      </trkpt>
      <trkpt lat="39.599587" lon="-76.061868">
        <ele>92.005329</ele>
        <time>2024-07-13T08:16:12.000Z</time>
      </trkpt>
      <trkpt lat="39.600808" lon="-76.061748">
        <ele>97.074805</ele>
        <time>2024-07-13T08:16:26.000Z</time>
      </trkpt>
      <trkpt lat="39.602093" lon="-76.061803">
        <ele>101.835983</ele>
        <time>2024-07-13T08:16:40.000Z</time>
      </trkpt>
      <trkpt lat="39.602902" lon="-76.061941">
        <ele>103.695204</ele>
        <time>2024-07-13T08:16:49.000Z</time>
      </trkpt>
      <trkpt lat="39.604091" lon="-76.062114">
        <ele>106.807645</ele>
        <time>2024-07-13T08:17:02.000Z</time>
      </trkpt>
      <trkpt lat="39.604281" lon="-76.062149">
        <ele>107.328509</ele>
        <time>2024-07-13T08:17:04.000Z</time>
      </trkpt>
      <trkpt lat="39.604884" lon="-76.062139">
        <ele>109.079883</ele>
        <time>2024-07-13T08:17:11.000Z</time>
      </trkpt>
      <trkpt lat="39.605082" lon="-76.062049">
        <ele>109.699097</ele>
        <time>2024-07-13T08:17:13.000Z</time>
      </trkpt>
      <trkpt lat="39.60512" lon="-76.062012">
        <ele>109.847728</ele>
        <time>2024-07-13T08:17:14.000Z</time>
      </trkpt>
      <trkpt lat="39.605171" lon="-76.061996">
        <ele>109.986705</ele>
        <time>2024-07-13T08:17:15.000Z</time>
      </trkpt>
      <trkpt lat="39.605362" lon="-76.061885">
        <ele>110.770251</ele>
        <time>2024-07-13T08:17:17.000Z</time>
      </trkpt>
      <trkpt lat="39.605961" lon="-76.061465">
        <ele>113.605178</ele>
        <time>2024-07-13T08:17:25.000Z</time>
      </trkpt>
      <trkpt lat="39.606629" lon="-76.061077">
        <ele>116.652958</ele>
        <time>2024-07-13T08:17:33.000Z</time>
      </trkpt>
      <trkpt lat="39.606683" lon="-76.061057">
        <ele>116.869748</ele>
        <time>2024-07-13T08:17:34.000Z</time>
      </trkpt>
      <trkpt lat="39.606974" lon="-76.060947">
        <ele>117.934329</ele>
        <time>2024-07-13T08:17:37.000Z</time>
      </trkpt>
      <trkpt lat="39.607543" lon="-76.06076">
        <ele>119.172283</ele>
        <time>2024-07-13T08:17:44.000Z</time>
      </trkpt>
      <trkpt lat="39.607664" lon="-76.060758">
        <ele>119.430217</ele>
        <time>2024-07-13T08:17:45.000Z</time>
      </trkpt>
      <trkpt lat="39.608087" lon="-76.060749">
        <ele>120.303403</ele>
        <time>2024-07-13T08:17:50.000Z</time>
      </trkpt>
      <trkpt lat="39.608349" lon="-76.060774">
        <ele>120.878131</ele>
        <time>2024-07-13T08:17:53.000Z</time>
      </trkpt>
      <trkpt lat="39.608724" lon="-76.060795">
        <ele>121.379682</ele>
        <time>2024-07-13T08:17:57.000Z</time>
      </trkpt>
      <trkpt lat="39.609018" lon="-76.060799">
        <ele>121.112022</ele>
        <time>2024-07-13T08:18:00.000Z</time>
      </trkpt>
      <trkpt lat="39.611198" lon="-76.060833">
        <ele>117.976366</ele>
        <time>2024-07-13T08:18:24.000Z</time>
      </trkpt>
      <trkpt lat="39.612118" lon="-76.060897">
        <ele>115.850863</ele>
        <time>2024-07-13T08:18:34.000Z</time>
      </trkpt>
      <trkpt lat="39.612694" lon="-76.060888">
        <ele>114.807949</ele>
        <time>2024-07-13T08:18:40.000Z</time>
      </trkpt>
      <trkpt lat="39.613179" lon="-76.060785">
        <ele>113.983275</ele>
        <time>2024-07-13T08:18:45.000Z</time>
      </trkpt>
      <trkpt lat="39.614422" lon="-76.060802">
        <ele>112.565187</ele>
        <time>2024-07-13T08:18:59.000Z</time>
      </trkpt>
      <trkpt lat="39.614959" lon="-76.061008">
        <ele>112.547932</ele>
        <time>2024-07-13T08:19:05.000Z</time>
      </trkpt>
      <trkpt lat="39.615646" lon="-76.061061">
        <ele>112.527014</ele>
        <time>2024-07-13T08:19:13.000Z</time>
      </trkpt>
      <trkpt lat="39.616038" lon="-76.061119">
        <ele>112.534597</ele>
        <time>2024-07-13T08:19:17.000Z</time>
      </trkpt>
      <trkpt lat="39.616195" lon="-76.061145">
        <ele>112.54228</ele>
        <time>2024-07-13T08:19:19.000Z</time>
      </trkpt>
      <trkpt lat="39.616526" lon="-76.06121">
        <ele>112.558654</ele>
        <time>2024-07-13T08:19:23.000Z</time>
      </trkpt>
      <trkpt lat="39.617132" lon="-76.061354">
        <ele>112.588215</ele>
        <time>2024-07-13T08:19:30.000Z</time>
      </trkpt>
      <trkpt lat="39.617606" lon="-76.061296">
        <ele>112.649598</ele>
        <time>2024-07-13T08:19:35.000Z</time>
      </trkpt>
      <trkpt lat="39.618049" lon="-76.06122">
        <ele>113.265706</ele>
        <time>2024-07-13T08:19:40.000Z</time>
      </trkpt>
      <trkpt lat="39.618424" lon="-76.061111">
        <ele>113.798258</ele>
        <time>2024-07-13T08:19:44.000Z</time>
      </trkpt>
      <trkpt lat="39.6191" lon="-76.060728">
        <ele>114.826777</ele>
        <time>2024-07-13T08:19:52.000Z</time>
      </trkpt>
      <trkpt lat="39.61938" lon="-76.061088">
        <ele>115.65021</ele>
        <time>2024-07-13T08:19:56.000Z</time>
      </trkpt>
      <trkpt lat="39.61988" lon="-76.061468">
        <ele>117.258262</ele>
        <time>2024-07-13T08:20:02.000Z</time>
      </trkpt>
      <trkpt lat="39.620699" lon="-76.062049">
        <ele>119.892045</ele>
        <time>2024-07-13T08:20:12.000Z</time>
      </trkpt>
      <trkpt lat="39.6218" lon="-76.062907">
        <ele>124.86817</ele>
        <time>2024-07-13T08:20:26.000Z</time>
      </trkpt>
      <trkpt lat="39.622076" lon="-76.063306">
        <ele>126.470446</ele>
        <time>2024-07-13T08:20:31.000Z</time>
      </trkpt>
      <trkpt lat="39.622199" lon="-76.063495">
        <ele>127.211573</ele>
        <time>2024-07-13T08:20:33.000Z</time>
      </trkpt>
      <trkpt lat="39.622547" lon="-76.064075">
        <ele>129.361465</ele>
        <time>2024-07-13T08:20:39.000Z</time>
      </trkpt>
      <trkpt lat="39.622689" lon="-76.064425">
        <ele>130.516484</ele>
        <time>2024-07-13T08:20:42.000Z</time>
      </trkpt>
      <trkpt lat="39.623139" lon="-76.065956">
        <ele>134.617429</ele>
        <time>2024-07-13T08:20:56.000Z</time>
      </trkpt>
      <trkpt lat="39.623207" lon="-76.066166">
        <ele>134.921137</ele>
        <time>2024-07-13T08:20:58.000Z</time>
      </trkpt>
      <trkpt lat="39.623509" lon="-76.067058">
        <ele>136.176112</ele>
        <time>2024-07-13T08:21:06.000Z</time>
      </trkpt>
      <trkpt lat="39.624444" lon="-76.068731">
        <ele>136.598661</ele>
        <time>2024-07-13T08:21:24.000Z</time>
      </trkpt>
      <trkpt lat="39.625351" lon="-76.070386">
        <ele>135.541653</ele>
        <time>2024-07-13T08:21:41.000Z</time>
      </trkpt>
      <trkpt lat="39.625969" lon="-76.071993">
        <ele>134.88295</ele>
        <time>2024-07-13T08:21:56.000Z</time>
      </trkpt>
      <trkpt lat="39.626038" lon="-76.07215">
        <ele>134.942611</ele>
        <time>2024-07-13T08:21:58.000Z</time>
      </trkpt>
      <trkpt lat="39.626638" lon="-76.07365">
        <ele>135.565879</ele>
        <time>2024-07-13T08:22:12.000Z</time>
      </trkpt>
      <trkpt lat="39.626875" lon="-76.074207">
        <ele>135.808396</ele>
        <time>2024-07-13T08:22:17.000Z</time>
      </trkpt>
      <trkpt lat="39.628174" lon="-76.077466">
        <ele>137.200134</ele>
        <time>2024-07-13T08:22:48.000Z</time>
      </trkpt>
      <trkpt lat="39.628853" lon="-76.07734">
        <ele>137.658277</ele>
        <time>2024-07-13T08:22:56.000Z</time>
      </trkpt>
      <trkpt lat="39.629112" lon="-76.077295">
        <ele>137.860639</ele>
        <time>2024-07-13T08:22:59.000Z</time>
      </trkpt>
      <trkpt lat="39.629386" lon="-76.077247">
        <ele>138.078915</ele>
        <time>2024-07-13T08:23:02.000Z</time>
      </trkpt>
      <trkpt lat="39.629681" lon="-76.077176">
        <ele>138.304184</ele>
        <time>2024-07-13T08:23:05.000Z</time>
      </trkpt>
      <trkpt lat="39.629723" lon="-76.077176">
        <ele>138.33778</ele>
        <time>2024-07-13T08:23:05.000Z</time>
      </trkpt>
      <trkpt lat="39.630138" lon="-76.077096">
        <ele>138.667657</ele>
        <time>2024-07-13T08:23:10.000Z</time>
      </trkpt>
      <trkpt lat="39.630315" lon="-76.077056">
        <ele>138.740329</ele>
        <time>2024-07-13T08:23:12.000Z</time>
      </trkpt>
      <trkpt lat="39.630426" lon="-76.07704">
        <ele>138.768395</ele>
        <time>2024-07-13T08:23:13.000Z</time>
      </trkpt>
      <trkpt lat="39.630602" lon="-76.077026">
        <ele>138.811477</ele>
        <time>2024-07-13T08:23:15.000Z</time>
      </trkpt>
      <trkpt lat="39.631805" lon="-76.076825">
        <ele>139.110061</ele>
        <time>2024-07-13T08:23:28.000Z</time>
      </trkpt>
      <trkpt lat="39.631947" lon="-76.0768">
        <ele>139.14947</ele>
        <time>2024-07-13T08:23:30.000Z</time>
      </trkpt>
      <trkpt lat="39.632645" lon="-76.076695">
        <ele>138.983796</ele>
        <time>2024-07-13T08:23:38.000Z</time>
      </trkpt>
      <trkpt lat="39.633039" lon="-76.076642">
        <ele>138.880412</ele>
        <time>2024-07-13T08:23:42.000Z</time>
      </trkpt>
      <trkpt lat="39.633279" lon="-76.076714">
        <ele>138.813373</ele>
        <time>2024-07-13T08:23:45.000Z</time>
      </trkpt>
      <trkpt lat="39.633624" lon="-76.077089">
        <ele>138.696359</ele>
        <time>2024-07-13T08:23:50.000Z</time>
      </trkpt>
      <trkpt lat="39.633931" lon="-76.077511">
        <ele>138.259826</ele>
        <time>2024-07-13T08:23:55.000Z</time>
      </trkpt>
      <trkpt lat="39.634041" lon="-76.077894">
        <ele>137.941106</ele>
        <time>2024-07-13T08:23:59.000Z</time>
      </trkpt>
      <trkpt lat="39.633952" lon="-76.078861">
        <ele>137.142867</ele>
        <time>2024-07-13T08:24:07.000Z</time>
      </trkpt>
      <trkpt lat="39.633929" lon="-76.0791">
        <ele>136.95998</ele>
        <time>2024-07-13T08:24:09.000Z</time>
      </trkpt>
      <trkpt lat="39.633916" lon="-76.079415">
        <ele>136.643811</ele>
        <time>2024-07-13T08:24:12.000Z</time>
      </trkpt>
      <trkpt lat="39.633897" lon="-76.07961">
        <ele>136.398462</ele>
        <time>2024-07-13T08:24:14.000Z</time>
      </trkpt>
      <trkpt lat="39.633865" lon="-76.080274">
        <ele>135.567058</ele>
        <time>2024-07-13T08:24:20.000Z</time>
      </trkpt>
      <trkpt lat="39.633802" lon="-76.081146">
        <ele>134.47363</ele>
        <time>2024-07-13T08:24:28.000Z</time>
      </trkpt>
      <trkpt lat="39.6338" lon="-76.081155">
        <ele>134.458556</ele>
        <time>2024-07-13T08:24:28.000Z</time>
      </trkpt>
      <trkpt lat="39.633803" lon="-76.081259">
        <ele>134.330545</ele>
        <time>2024-07-13T08:24:29.000Z</time>
      </trkpt>
      <trkpt lat="39.633783" lon="-76.081403">
        <ele>134.146666</ele>
        <time>2024-07-13T08:24:30.000Z</time>
      </trkpt>
      <trkpt lat="39.633769" lon="-76.081516">
        <ele>134.00155</ele>
        <time>2024-07-13T08:24:31.000Z</time>
      </trkpt>
      <trkpt lat="39.633699" lon="-76.082288">
        <ele>132.430205</ele>
        <time>2024-07-13T08:24:38.000Z</time>
      </trkpt>
      <trkpt lat="39.633685" lon="-76.082404">
        <ele>132.147787</ele>
        <time>2024-07-13T08:24:39.000Z</time>
      </trkpt>
      <trkpt lat="39.633629" lon="-76.083238">
        <ele>130.363684</ele>
        <time>2024-07-13T08:24:46.000Z</time>
      </trkpt>
      <trkpt lat="39.633648" lon="-76.083785">
        <ele>129.175017</ele>
        <time>2024-07-13T08:24:51.000Z</time>
      </trkpt>
      <trkpt lat="39.633627" lon="-76.084138">
        <ele>128.803949</ele>
        <time>2024-07-13T08:24:54.000Z</time>
      </trkpt>
      <trkpt lat="39.633613" lon="-76.08448">
        <ele>128.721075</ele>
        <time>2024-07-13T08:24:57.000Z</time>
      </trkpt>
      <trkpt lat="39.633525" lon="-76.085234">
        <ele>128.533357</ele>
        <time>2024-07-13T08:25:04.000Z</time>
      </trkpt>
      <trkpt lat="39.633386" lon="-76.085881">
        <ele>128.371046</ele>
        <time>2024-07-13T08:25:10.000Z</time>
      </trkpt>
      <trkpt lat="39.633276" lon="-76.086212">
        <ele>128.309804</ele>
        <time>2024-07-13T08:25:13.000Z</time>
      </trkpt>
      <trkpt lat="39.63306" lon="-76.087109">
        <ele>130.63712</ele>
        <time>2024-07-13T08:25:21.000Z</time>
      </trkpt>
      <trkpt lat="39.633026" lon="-76.087267">
        <ele>131.055099</ele>
        <time>2024-07-13T08:25:22.000Z</time>
      </trkpt>
      <trkpt lat="39.633007" lon="-76.087437">
        <ele>131.524349</ele>
        <time>2024-07-13T08:25:23.000Z</time>
      </trkpt>
      <trkpt lat="39.632934" lon="-76.087825">
        <ele>132.511863</ele>
        <time>2024-07-13T08:25:26.000Z</time>
      </trkpt>
      <trkpt lat="39.632913" lon="-76.087967">
        <ele>132.881942</ele>
        <time>2024-07-13T08:25:27.000Z</time>
      </trkpt>
      <trkpt lat="39.632787" lon="-76.088797">
        <ele>134.468995</ele>
        <time>2024-07-13T08:25:34.000Z</time>
      </trkpt>
      <trkpt lat="39.632753" lon="-76.089447">
        <ele>135.063471</ele>
        <time>2024-07-13T08:25:40.000Z</time>
      </trkpt>
      <trkpt lat="39.63285" lon="-76.090115">
        <ele>135.685772</ele>
        <time>2024-07-13T08:25:46.000Z</time>
      </trkpt>
      <trkpt lat="39.632915" lon="-76.09064">
        <ele>136.179763</ele>
        <time>2024-07-13T08:25:51.000Z</time>
      </trkpt>
      <trkpt lat="39.632966" lon="-76.090993">
        <ele>135.85442</ele>
        <time>2024-07-13T08:25:54.000Z</time>
      </trkpt>
      <trkpt lat="39.633035" lon="-76.091451">
        <ele>134.870748</ele>
        <time>2024-07-13T08:25:58.000Z</time>
      </trkpt>
      <trkpt lat="39.633103" lon="-76.093088">
        <ele>131.439995</ele>
        <time>2024-07-13T08:26:12.000Z</time>
      </trkpt>
      <trkpt lat="39.63322" lon="-76.09586">
        <ele>125.613898</ele>
        <time>2024-07-13T08:26:36.000Z</time>
      </trkpt>
      <trkpt lat="39.633217" lon="-76.096053">
        <ele>125.345643</ele>
        <time>2024-07-13T08:26:38.000Z</time>
      </trkpt>
      <trkpt lat="39.633234" lon="-76.097028">
        <ele>123.905396</ele>
        <time>2024-07-13T08:26:46.000Z</time>
      </trkpt>
      <trkpt lat="39.633271" lon="-76.097834">
        <ele>122.758282</ele>
        <time>2024-07-13T08:26:53.000Z</time>
      </trkpt>
      <trkpt lat="39.633351" lon="-76.098413">
        <ele>122.33339</ele>
        <time>2024-07-13T08:26:58.000Z</time>
      </trkpt>
      <trkpt lat="39.633478" lon="-76.098838">
        <ele>122.004347</ele>
        <time>2024-07-13T08:27:02.000Z</time>
      </trkpt>
      <trkpt lat="39.633926" lon="-76.099975">
        <ele>121.081572</ele>
        <time>2024-07-13T08:27:13.000Z</time>
      </trkpt>
      <trkpt lat="39.634588" lon="-76.102454">
        <ele>119.380176</ele>
        <time>2024-07-13T08:27:35.000Z</time>
      </trkpt>
      <trkpt lat="39.63481" lon="-76.103234">
        <ele>118.564334</ele>
        <time>2024-07-13T08:27:42.000Z</time>
      </trkpt>
      <trkpt lat="39.634967" lon="-76.10381">
        <ele>117.956982</ele>
        <time>2024-07-13T08:27:47.000Z</time>
      </trkpt>
      <trkpt lat="39.634998" lon="-76.103907">
        <ele>117.848807</ele>
        <time>2024-07-13T08:27:48.000Z</time>
      </trkpt>
      <trkpt lat="39.635147" lon="-76.104467">
        <ele>117.011939</ele>
        <time>2024-07-13T08:27:53.000Z</time>
      </trkpt>
      <trkpt lat="39.636109" lon="-76.108006">
        <ele>107.603729</ele>
        <time>2024-07-13T08:28:25.000Z</time>
      </trkpt>
      <trkpt lat="39.636665" lon="-76.10985">
        <ele>105.040271</ele>
        <time>2024-07-13T08:28:42.000Z</time>
      </trkpt>
      <trkpt lat="39.636824" lon="-76.110352">
        <ele>104.685861</ele>
        <time>2024-07-13T08:28:47.000Z</time>
      </trkpt>
      <trkpt lat="39.637206" lon="-76.111593">
        <ele>104.47482</ele>
        <time>2024-07-13T08:28:58.000Z</time>
      </trkpt>
      <trkpt lat="39.637826" lon="-76.112684">
        <ele>104.8023</ele>
        <time>2024-07-13T08:29:10.000Z</time>
      </trkpt>
      <trkpt lat="39.638191" lon="-76.113599">
        <ele>104.966364</ele>
        <time>2024-07-13T08:29:19.000Z</time>
      </trkpt>
      <trkpt lat="39.638301" lon="-76.114285">
        <ele>105.062526</ele>
        <time>2024-07-13T08:29:25.000Z</time>
      </trkpt>
      <trkpt lat="39.638343" lon="-76.114574">
        <ele>105.104363</ele>
        <time>2024-07-13T08:29:28.000Z</time>
      </trkpt>
      <trkpt lat="39.638519" lon="-76.115659">
        <ele>104.615839</ele>
        <time>2024-07-13T08:29:37.000Z</time>
      </trkpt>
      <trkpt lat="39.63881" lon="-76.116746">
        <ele>103.494704</ele>
        <time>2024-07-13T08:29:47.000Z</time>
      </trkpt>
      <trkpt lat="39.63895" lon="-76.11717">
        <ele>103.034919</ele>
        <time>2024-07-13T08:29:51.000Z</time>
      </trkpt>
      <trkpt lat="39.639053" lon="-76.117504">
        <ele>102.601522</ele>
        <time>2024-07-13T08:29:54.000Z</time>
      </trkpt>
      <trkpt lat="39.639137" lon="-76.117779">
        <ele>102.189315</ele>
        <time>2024-07-13T08:29:57.000Z</time>
      </trkpt>
      <trkpt lat="39.639189" lon="-76.117946">
        <ele>101.941799</ele>
        <time>2024-07-13T08:29:59.000Z</time>
      </trkpt>
      <trkpt lat="39.639698" lon="-76.119518">
        <ele>99.657954</ele>
        <time>2024-07-13T08:30:14.000Z</time>
      </trkpt>
      <trkpt lat="39.639965" lon="-76.120173">
        <ele>99.021986</ele>
        <time>2024-07-13T08:30:20.000Z</time>
      </trkpt>
      <trkpt lat="39.640329" lon="-76.121066">
        <ele>98.140877</ele>
        <time>2024-07-13T08:30:29.000Z</time>
      </trkpt>
      <trkpt lat="39.640662" lon="-76.121814">
        <ele>97.707288</ele>
        <time>2024-07-13T08:30:36.000Z</time>
      </trkpt>
      <trkpt lat="39.640708" lon="-76.121941">
        <ele>97.717265</ele>
        <time>2024-07-13T08:30:37.000Z</time>
      </trkpt>
      <trkpt lat="39.640995" lon="-76.122606">
        <ele>97.775465</ele>
        <time>2024-07-13T08:30:44.000Z</time>
      </trkpt>
      <trkpt lat="39.641048" lon="-76.122747">
        <ele>97.787088</ele>
        <time>2024-07-13T08:30:45.000Z</time>
      </trkpt>
      <trkpt lat="39.641195" lon="-76.123396">
        <ele>97.837558</ele>
        <time>2024-07-13T08:30:51.000Z</time>
      </trkpt>
      <trkpt lat="39.641223" lon="-76.123518">
        <ele>97.848031</ele>
        <time>2024-07-13T08:30:52.000Z</time>
      </trkpt>
      <trkpt lat="39.641327" lon="-76.125808">
        <ele>98.184835</ele>
        <time>2024-07-13T08:31:12.000Z</time>
      </trkpt>
      <trkpt lat="39.641339" lon="-76.126172">
        <ele>98.253351</ele>
        <time>2024-07-13T08:31:15.000Z</time>
      </trkpt>
      <trkpt lat="39.641846" lon="-76.128173">
        <ele>98.73726</ele>
        <time>2024-07-13T08:31:33.000Z</time>
      </trkpt>
      <trkpt lat="39.642134" lon="-76.129544">
        <ele>99.206158</ele>
        <time>2024-07-13T08:31:45.000Z</time>
      </trkpt>
      <trkpt lat="39.642224" lon="-76.129661">
        <ele>99.258702</ele>
        <time>2024-07-13T08:31:46.000Z</time>
      </trkpt>
      <trkpt lat="39.643442" lon="-76.13045">
        <ele>98.695767</ele>
        <time>2024-07-13T08:32:01.000Z</time>
      </trkpt>
      <trkpt lat="39.644552" lon="-76.131196">
        <ele>97.117862</ele>
        <time>2024-07-13T08:32:15.000Z</time>
      </trkpt>
      <trkpt lat="39.644786" lon="-76.131391">
        <ele>96.513659</ele>
        <time>2024-07-13T08:32:18.000Z</time>
      </trkpt>
      <trkpt lat="39.645653" lon="-76.13238">
        <ele>94.016734</ele>
        <time>2024-07-13T08:32:31.000Z</time>
      </trkpt>
      <trkpt lat="39.646533" lon="-76.133469">
        <ele>92.958492</ele>
        <time>2024-07-13T08:32:45.000Z</time>
      </trkpt>
      <trkpt lat="39.646943" lon="-76.133814">
        <ele>92.643641</ele>
        <time>2024-07-13T08:32:50.000Z</time>
      </trkpt>
      <trkpt lat="39.647593" lon="-76.134334">
        <ele>92.355193</ele>
        <time>2024-07-13T08:32:58.000Z</time>
      </trkpt>
      <trkpt lat="39.647807" lon="-76.134555">
        <ele>92.29149</ele>
        <time>2024-07-13T08:33:01.000Z</time>
      </trkpt>
      <trkpt lat="39.647979" lon="-76.134858">
        <ele>92.222084</ele>
        <time>2024-07-13T08:33:04.000Z</time>
      </trkpt>
      <trkpt lat="39.648065" lon="-76.135035">
        <ele>92.186454</ele>
        <time>2024-07-13T08:33:06.000Z</time>
      </trkpt>
      <trkpt lat="39.648328" lon="-76.13572">
        <ele>92.046432</ele>
        <time>2024-07-13T08:33:13.000Z</time>
      </trkpt>
      <trkpt lat="39.648514" lon="-76.136159">
        <ele>91.73091</ele>
        <time>2024-07-13T08:33:17.000Z</time>
      </trkpt>
      <trkpt lat="39.648838" lon="-76.13696">
        <ele>91.176531</ele>
        <time>2024-07-13T08:33:25.000Z</time>
      </trkpt>
      <trkpt lat="39.649305" lon="-76.138192">
        <ele>90.603049</ele>
        <time>2024-07-13T08:33:37.000Z</time>
      </trkpt>
      <trkpt lat="39.649496" lon="-76.138859">
        <ele>90.58838</ele>
        <time>2024-07-13T08:33:43.000Z</time>
      </trkpt>
      <trkpt lat="39.649564" lon="-76.139227">
        <ele>90.580717</ele>
        <time>2024-07-13T08:33:46.000Z</time>
      </trkpt>
      <trkpt lat="39.64964" lon="-76.1397">
        <ele>90.57066</ele>
        <time>2024-07-13T08:33:50.000Z</time>
      </trkpt>
      <trkpt lat="39.649699" lon="-76.14022">
        <ele>90.159792</ele>
        <time>2024-07-13T08:33:55.000Z</time>
      </trkpt>
      <trkpt lat="39.649938" lon="-76.141312">
        <ele>88.015927</ele>
        <time>2024-07-13T08:34:05.000Z</time>
      </trkpt>
      <trkpt lat="39.650069" lon="-76.141877">
        <ele>86.892621</ele>
        <time>2024-07-13T08:34:10.000Z</time>
      </trkpt>
      <trkpt lat="39.650164" lon="-76.142217">
        <ele>86.221472</ele>
        <time>2024-07-13T08:34:13.000Z</time>
      </trkpt>
      <trkpt lat="39.6502" lon="-76.142289">
        <ele>86.006486</ele>
        <time>2024-07-13T08:34:14.000Z</time>
      </trkpt>
      <trkpt lat="39.650242" lon="-76.142483">
        <ele>85.400523</ele>
        <time>2024-07-13T08:34:16.000Z</time>
      </trkpt>
      <trkpt lat="39.650278" lon="-76.142568">
        <ele>85.126471</ele>
        <time>2024-07-13T08:34:17.000Z</time>
      </trkpt>
      <trkpt lat="39.650371" lon="-76.142857">
        <ele>84.211778</ele>
        <time>2024-07-13T08:34:20.000Z</time>
      </trkpt>
      <trkpt lat="39.650533" lon="-76.143147">
        <ele>83.14588</ele>
        <time>2024-07-13T08:34:23.000Z</time>
      </trkpt>
      <trkpt lat="39.650952" lon="-76.143758">
        <ele>80.703239</ele>
        <time>2024-07-13T08:34:30.000Z</time>
      </trkpt>
      <trkpt lat="39.651347" lon="-76.144281">
        <ele>78.785328</ele>
        <time>2024-07-13T08:34:36.000Z</time>
      </trkpt>
      <trkpt lat="39.651419" lon="-76.144361">
        <ele>78.562922</ele>
        <time>2024-07-13T08:34:37.000Z</time>
      </trkpt>
      <trkpt lat="39.65191" lon="-76.144998">
        <ele>76.769371</ele>
        <time>2024-07-13T08:34:45.000Z</time>
      </trkpt>
      <trkpt lat="39.652192" lon="-76.14539">
        <ele>75.697691</ele>
        <time>2024-07-13T08:34:50.000Z</time>
      </trkpt>
      <trkpt lat="39.652379" lon="-76.14562">
        <ele>75.04718</ele>
        <time>2024-07-13T08:34:53.000Z</time>
      </trkpt>
      <trkpt lat="39.652431" lon="-76.145677">
        <ele>74.840515</ele>
        <time>2024-07-13T08:34:54.000Z</time>
      </trkpt>
      <trkpt lat="39.652514" lon="-76.145801">
        <ele>74.659081</ele>
        <time>2024-07-13T08:34:55.000Z</time>
      </trkpt>
      <trkpt lat="39.652554" lon="-76.145856">
        <ele>74.690555</ele>
        <time>2024-07-13T08:34:56.000Z</time>
      </trkpt>
      <trkpt lat="39.652732" lon="-76.146086">
        <ele>74.824445</ele>
        <time>2024-07-13T08:34:59.000Z</time>
      </trkpt>
      <trkpt lat="39.652805" lon="-76.146182">
        <ele>74.873126</ele>
        <time>2024-07-13T08:35:00.000Z</time>
      </trkpt>
      <trkpt lat="39.65325" lon="-76.146715">
        <ele>75.192204</ele>
        <time>2024-07-13T08:35:07.000Z</time>
      </trkpt>
      <trkpt lat="39.653358" lon="-76.146828">
        <ele>75.272004</ele>
        <time>2024-07-13T08:35:09.000Z</time>
      </trkpt>
      <trkpt lat="39.654253" lon="-76.147392">
        <ele>74.919673</ele>
        <time>2024-07-13T08:35:20.000Z</time>
      </trkpt>
      <trkpt lat="39.654264" lon="-76.147396">
        <ele>74.890843</ele>
        <time>2024-07-13T08:35:20.000Z</time>
      </trkpt>
      <trkpt lat="39.65439" lon="-76.147466">
        <ele>74.651273</ele>
        <time>2024-07-13T08:35:22.000Z</time>
      </trkpt>
      <trkpt lat="39.654651" lon="-76.147605">
        <ele>74.169445</ele>
        <time>2024-07-13T08:35:25.000Z</time>
      </trkpt>
      <trkpt lat="39.654946" lon="-76.147685">
        <ele>73.662907</ele>
        <time>2024-07-13T08:35:28.000Z</time>
      </trkpt>
      <trkpt lat="39.655328" lon="-76.147661">
        <ele>73.009151</ele>
        <time>2024-07-13T08:35:32.000Z</time>
      </trkpt>
      <trkpt lat="39.655572" lon="-76.147581">
        <ele>72.595984</ele>
        <time>2024-07-13T08:35:35.000Z</time>
      </trkpt>
      <trkpt lat="39.656089" lon="-76.147192">
        <ele>68.377554</ele>
        <time>2024-07-13T08:35:42.000Z</time>
      </trkpt>
      <trkpt lat="39.657222" lon="-76.14653">
        <ele>59.067365</ele>
        <time>2024-07-13T08:35:56.000Z</time>
      </trkpt>
      <trkpt lat="39.657597" lon="-76.146344">
        <ele>55.85743</ele>
        <time>2024-07-13T08:36:00.000Z</time>
      </trkpt>
      <trkpt lat="39.658093" lon="-76.146262">
        <ele>51.884898</ele>
        <time>2024-07-13T08:36:06.000Z</time>
      </trkpt>
      <trkpt lat="39.65894" lon="-76.146114">
        <ele>45.144409</ele>
        <time>2024-07-13T08:36:16.000Z</time>
      </trkpt>
      <trkpt lat="39.659526" lon="-76.145884">
        <ele>40.861936</ele>
        <time>2024-07-13T08:36:23.000Z</time>
      </trkpt>
      <trkpt lat="39.659827" lon="-76.145678">
        <ele>38.558979</ele>
        <time>2024-07-13T08:36:27.000Z</time>
      </trkpt>
      <trkpt lat="39.660026" lon="-76.145527">
        <ele>37.060832</ele>
        <time>2024-07-13T08:36:30.000Z</time>
      </trkpt>
      <trkpt lat="39.660346" lon="-76.145221">
        <ele>34.317003</ele>
        <time>2024-07-13T08:36:34.000Z</time>
      </trkpt>
      <trkpt lat="39.660498" lon="-76.145222">
        <ele>33.25135</ele>
        <time>2024-07-13T08:36:36.000Z</time>
      </trkpt>
      <trkpt lat="39.661205" lon="-76.146389">
        <ele>25.282296</ele>
        <time>2024-07-13T08:36:49.000Z</time>
      </trkpt>
      <trkpt lat="39.661433" lon="-76.146757">
        <ele>22.651355</ele>
        <time>2024-07-13T08:36:53.000Z</time>
      </trkpt>
      <trkpt lat="39.66149" lon="-76.146929">
        <ele>21.698438</ele>
        <time>2024-07-13T08:36:55.000Z</time>
      </trkpt>
      <trkpt lat="39.661606" lon="-76.14726">
        <ele>19.747112</ele>
        <time>2024-07-13T08:36:58.000Z</time>
      </trkpt>
      <trkpt lat="39.661644" lon="-76.147399">
        <ele>19.312278</ele>
        <time>2024-07-13T08:36:59.000Z</time>
      </trkpt>
      <trkpt lat="39.661849" lon="-76.147938">
        <ele>17.49983</ele>
        <time>2024-07-13T08:37:04.000Z</time>
      </trkpt>
      <trkpt lat="39.661857" lon="-76.147992">
        <ele>17.299093</ele>
        <time>2024-07-13T08:37:04.000Z</time>
      </trkpt>
      <trkpt lat="39.661056" lon="-76.149126">
        <ele>12.749199</ele>
        <time>2024-07-13T08:37:17.000Z</time>
      </trkpt>
      <trkpt lat="39.660878" lon="-76.149555">
        <ele>12.436685</ele>
        <time>2024-07-13T08:37:21.000Z</time>
      </trkpt>
      <trkpt lat="39.66079" lon="-76.15001">
        <ele>12.136963</ele>
        <time>2024-07-13T08:37:25.000Z</time>
      </trkpt>
      <trkpt lat="39.660801" lon="-76.15076">
        <ele>11.648792</ele>
        <time>2024-07-13T08:37:31.000Z</time>
      </trkpt>
      <trkpt lat="39.660803" lon="-76.151138">
        <ele>11.407596</ele>
        <time>2024-07-13T08:37:34.000Z</time>
      </trkpt>
      <trkpt lat="39.660752" lon="-76.151656">
        <ele>11.030696</ele>
        <time>2024-07-13T08:37:38.000Z</time>
      </trkpt>
      <trkpt lat="39.660622" lon="-76.152081">
        <ele>10.661973</ele>
        <time>2024-07-13T08:37:42.000Z</time>
      </trkpt>
      <trkpt lat="39.660318" lon="-76.152715">
        <ele>10.051447</ele>
        <time>2024-07-13T08:37:48.000Z</time>
      </trkpt>
      <trkpt lat="39.660247" lon="-76.153052">
        <ele>9.774595</ele>
        <time>2024-07-13T08:37:51.000Z</time>
      </trkpt>
      <trkpt lat="39.660313" lon="-76.153984">
        <ele>9.240207</ele>
        <time>2024-07-13T08:37:59.000Z</time>
      </trkpt>
      <trkpt lat="39.660543" lon="-76.155515">
        <ele>8.700014</ele>
        <time>2024-07-13T08:38:12.000Z</time>
      </trkpt>
      <trkpt lat="39.660594" lon="-76.156674">
        <ele>8.984817</ele>
        <time>2024-07-13T08:38:22.000Z</time>
      </trkpt>
      <trkpt lat="39.660643" lon="-76.156993">
        <ele>9.13619</ele>
        <time>2024-07-13T08:38:25.000Z</time>
      </trkpt>
      <trkpt lat="39.661258" lon="-76.157762">
        <ele>9.643357</ele>
        <time>2024-07-13T08:38:34.000Z</time>
      </trkpt>
      <trkpt lat="39.661716" lon="-76.158212">
        <ele>9.818958</ele>
        <time>2024-07-13T08:38:40.000Z</time>
      </trkpt>
      <trkpt lat="39.662117" lon="-76.158757">
        <ele>9.972959</ele>
        <time>2024-07-13T08:38:46.000Z</time>
      </trkpt>
      <trkpt lat="39.662236" lon="-76.159021">
        <ele>10.037297</ele>
        <time>2024-07-13T08:38:49.000Z</time>
      </trkpt>
      <trkpt lat="39.662226" lon="-76.159227">
        <ele>10.080149</ele>
        <time>2024-07-13T08:38:51.000Z</time>
      </trkpt>
      <trkpt lat="39.662172" lon="-76.15931">
        <ele>10.104606</ele>
        <time>2024-07-13T08:38:52.000Z</time>
      </trkpt>
      <trkpt lat="39.661221" lon="-76.157931">
        <ele>9.495579</ele>
        <time>2024-07-13T08:39:08.000Z</time>
      </trkpt>
      <trkpt lat="39.660485" lon="-76.157102">
        <ele>9.142997</ele>
        <time>2024-07-13T08:39:19.000Z</time>
      </trkpt>
      <trkpt lat="39.660089" lon="-76.156699">
        <ele>9.085087</ele>
        <time>2024-07-13T08:39:25.000Z</time>
      </trkpt>
      <trkpt lat="39.659745" lon="-76.15638">
        <ele>9.036798</ele>
        <time>2024-07-13T08:39:30.000Z</time>
      </trkpt>
      <trkpt lat="39.658665" lon="-76.155586">
        <ele>8.972559</ele>
        <time>2024-07-13T08:39:44.000Z</time>
      </trkpt>
      <trkpt lat="39.658203" lon="-76.155314">
        <ele>8.965488</ele>
        <time>2024-07-13T08:39:50.000Z</time>
      </trkpt>
      <trkpt lat="39.6572" lon="-76.154863">
        <ele>8.943595</ele>
        <time>2024-07-13T08:40:02.000Z</time>
      </trkpt>
      <trkpt lat="39.655911" lon="-76.154448">
        <ele>8.910836</ele>
        <time>2024-07-13T08:40:17.000Z</time>
      </trkpt>
      <trkpt lat="39.642058" lon="-76.150197">
        <ele>9.37151</ele>
        <time>2024-07-13T08:42:55.000Z</time>
      </trkpt>
      <trkpt lat="39.638856" lon="-76.149246">
        <ele>8.023253</ele>
        <time>2024-07-13T08:43:32.000Z</time>
      </trkpt>
      <trkpt lat="39.637103" lon="-76.148777">
        <ele>7.33144</ele>
        <time>2024-07-13T08:43:52.000Z</time>
      </trkpt>
      <trkpt lat="39.635213" lon="-76.148257">
        <ele>6.820826</ele>
        <time>2024-07-13T08:44:13.000Z</time>
      </trkpt>
      <trkpt lat="39.63465" lon="-76.148023">
        <ele>6.816358</ele>
        <time>2024-07-13T08:44:20.000Z</time>
      </trkpt>
      <trkpt lat="39.63318" lon="-76.147173">
        <ele>7.139911</ele>
        <time>2024-07-13T08:44:38.000Z</time>
      </trkpt>
      <trkpt lat="39.632227" lon="-76.146569">
        <ele>7.546054</ele>
        <time>2024-07-13T08:44:50.000Z</time>
      </trkpt>
      <trkpt lat="39.631163" lon="-76.145599">
        <ele>8.05529</ele>
        <time>2024-07-13T08:45:04.000Z</time>
      </trkpt>
      <trkpt lat="39.628507" lon="-76.143529">
        <ele>9.111729</ele>
        <time>2024-07-13T08:45:38.000Z</time>
      </trkpt>
      <trkpt lat="39.627076" lon="-76.142159">
        <ele>9.293826</ele>
        <time>2024-07-13T08:45:58.000Z</time>
      </trkpt>
      <trkpt lat="39.624688" lon="-76.140047">
        <ele>9.255387</ele>
        <time>2024-07-13T08:46:30.000Z</time>
      </trkpt>
      <trkpt lat="39.622922" lon="-76.138459">
        <ele>8.541318</ele>
        <time>2024-07-13T08:46:54.000Z</time>
      </trkpt>
      <trkpt lat="39.620163" lon="-76.135241">
        <ele>5.456308</ele>
        <time>2024-07-13T08:47:35.000Z</time>
      </trkpt>
      <trkpt lat="39.619914" lon="-76.135035">
        <ele>5.20179</ele>
        <time>2024-07-13T08:47:38.000Z</time>
      </trkpt>
      <trkpt lat="39.619147" lon="-76.134592">
        <ele>4.478355</ele>
        <time>2024-07-13T08:47:47.000Z</time>
      </trkpt>
      <trkpt lat="39.618891" lon="-76.134347">
        <ele>4.216518</ele>
        <time>2024-07-13T08:47:51.000Z</time>
      </trkpt>
      <trkpt lat="39.618602" lon="-76.134004">
        <ele>3.87503</ele>
        <time>2024-07-13T08:47:55.000Z</time>
      </trkpt>
      <trkpt lat="39.616942" lon="-76.131645">
        <ele>3.661045</ele>
        <time>2024-07-13T08:48:22.000Z</time>
      </trkpt>
      <trkpt lat="39.616567" lon="-76.130928">
        <ele>3.769052</ele>
        <time>2024-07-13T08:48:29.000Z</time>
      </trkpt>
      <trkpt lat="39.615966" lon="-76.129496">
        <ele>4.146618</ele>
        <time>2024-07-13T08:48:43.000Z</time>
      </trkpt>
      <trkpt lat="39.615717" lon="-76.129083">
        <ele>4.303389</ele>
        <time>2024-07-13T08:48:47.000Z</time>
      </trkpt>
      <trkpt lat="39.615122" lon="-76.128281">
        <ele>4.629983</ele>
        <time>2024-07-13T08:48:57.000Z</time>
      </trkpt>
      <trkpt lat="39.614482" lon="-76.127454">
        <ele>4.949712</ele>
        <time>2024-07-13T08:49:07.000Z</time>
      </trkpt>
      <trkpt lat="39.614389" lon="-76.127225">
        <ele>5.020475</ele>
        <time>2024-07-13T08:49:09.000Z</time>
      </trkpt>
      <trkpt lat="39.614386" lon="-76.127142">
        <ele>5.040786</ele>
        <time>2024-07-13T08:49:10.000Z</time>
      </trkpt>
      <trkpt lat="39.61437" lon="-76.126804">
        <ele>5.133756</ele>
        <time>2024-07-13T08:49:13.000Z</time>
      </trkpt>
      <trkpt lat="39.614302" lon="-76.126589">
        <ele>5.198219</ele>
        <time>2024-07-13T08:49:15.000Z</time>
      </trkpt>
      <trkpt lat="39.613975" lon="-76.126136">
        <ele>5.388495</ele>
        <time>2024-07-13T08:49:20.000Z</time>
      </trkpt>
      <trkpt lat="39.613895" lon="-76.126032">
        <ele>5.435195</ele>
        <time>2024-07-13T08:49:21.000Z</time>
      </trkpt>
      <trkpt lat="39.613789" lon="-76.125942">
        <ele>5.482272</ele>
        <time>2024-07-13T08:49:22.000Z</time>
      </trkpt>
      <trkpt lat="39.613648" lon="-76.125802">
        <ele>5.554506</ele>
        <time>2024-07-13T08:49:24.000Z</time>
      </trkpt>
      <trkpt lat="39.613399" lon="-76.125566">
        <ele>5.677232</ele>
        <time>2024-07-13T08:49:27.000Z</time>
      </trkpt>
      <trkpt lat="39.612783" lon="-76.124815">
        <ele>6.037649</ele>
        <time>2024-07-13T08:49:36.000Z</time>
      </trkpt>
      <trkpt lat="39.609862" lon="-76.120855">
        <ele>8.094171</ele>
        <time>2024-07-13T08:50:23.000Z</time>
      </trkpt>
      <trkpt lat="39.609138" lon="-76.119949">
        <ele>8.467063</ele>
        <time>2024-07-13T08:50:34.000Z</time>
      </trkpt>
      <trkpt lat="39.60874" lon="-76.119569">
        <ele>8.510969</ele>
        <time>2024-07-13T08:50:39.000Z</time>
      </trkpt>
      <trkpt lat="39.60839" lon="-76.119272">
        <ele>8.547264</ele>
        <time>2024-07-13T08:50:44.000Z</time>
      </trkpt>
      <trkpt lat="39.607249" lon="-76.118138">
        <ele>8.019836</ele>
        <time>2024-07-13T08:51:00.000Z</time>
      </trkpt>
      <trkpt lat="39.606102" lon="-76.116962">
        <ele>6.772304</ele>
        <time>2024-07-13T08:51:16.000Z</time>
      </trkpt>
      <trkpt lat="39.605508" lon="-76.116233">
        <ele>6.221606</ele>
        <time>2024-07-13T08:51:25.000Z</time>
      </trkpt>
      <trkpt lat="39.605326" lon="-76.116">
        <ele>6.052764</ele>
        <time>2024-07-13T08:51:28.000Z</time>
      </trkpt>
      <trkpt lat="39.605027" lon="-76.115624">
        <ele>5.783677</ele>
        <time>2024-07-13T08:51:33.000Z</time>
      </trkpt>
      <trkpt lat="39.604916" lon="-76.11548">
        <ele>5.830546</ele>
        <time>2024-07-13T08:51:35.000Z</time>
      </trkpt>
      <trkpt lat="39.604885" lon="-76.115425">
        <ele>5.847398</ele>
        <time>2024-07-13T08:51:36.000Z</time>
      </trkpt>
      <trkpt lat="39.60484" lon="-76.115371">
        <ele>5.866669</ele>
        <time>2024-07-13T08:51:37.000Z</time>
      </trkpt>
      <trkpt lat="39.604299" lon="-76.114832">
        <ele>6.062428</ele>
        <time>2024-07-13T08:51:45.000Z</time>
      </trkpt>
      <trkpt lat="39.603937" lon="-76.114473">
        <ele>6.199295</ele>
        <time>2024-07-13T08:51:50.000Z</time>
      </trkpt>
      <trkpt lat="39.603417" lon="-76.11394">
        <ele>6.299336</ele>
        <time>2024-07-13T08:51:57.000Z</time>
      </trkpt>
      <trkpt lat="39.602891" lon="-76.113402">
        <ele>6.281617</ele>
        <time>2024-07-13T08:52:04.000Z</time>
      </trkpt>
      <trkpt lat="39.60287" lon="-76.113381">
        <ele>6.280843</ele>
        <time>2024-07-13T08:52:04.000Z</time>
      </trkpt>
      <trkpt lat="39.602157" lon="-76.112678">
        <ele>6.249157</ele>
        <time>2024-07-13T08:52:14.000Z</time>
      </trkpt>
      <trkpt lat="39.601502" lon="-76.112021">
        <ele>6.147814</ele>
        <time>2024-07-13T08:52:23.000Z</time>
      </trkpt>
      <trkpt lat="39.600672" lon="-76.111121">
        <ele>6.749105</ele>
        <time>2024-07-13T08:52:35.000Z</time>
      </trkpt>
      <trkpt lat="39.599581" lon="-76.109801">
        <ele>12.309699</ele>
        <time>2024-07-13T08:52:52.000Z</time>
      </trkpt>
      <trkpt lat="39.599353" lon="-76.109455">
        <ele>14.834716</ele>
        <time>2024-07-13T08:52:56.000Z</time>
      </trkpt>
      <trkpt lat="39.599339" lon="-76.109109">
        <ele>17.187915</ele>
        <time>2024-07-13T08:52:59.000Z</time>
      </trkpt>
      <trkpt lat="39.599549" lon="-76.108764">
        <ele>20.06529</ele>
        <time>2024-07-13T08:53:03.000Z</time>
      </trkpt>
      <trkpt lat="39.601291" lon="-76.106822">
        <ele>39.506457</ele>
        <time>2024-07-13T08:53:29.000Z</time>
      </trkpt>
      <trkpt lat="39.602139" lon="-76.105625">
        <ele>47.900922</ele>
        <time>2024-07-13T08:53:43.000Z</time>
      </trkpt>
      <trkpt lat="39.602493" lon="-76.105104">
        <ele>50.998963</ele>
        <time>2024-07-13T08:53:49.000Z</time>
      </trkpt>
      <trkpt lat="39.602994" lon="-76.104543">
        <ele>55.029583</ele>
        <time>2024-07-13T08:53:56.000Z</time>
      </trkpt>
      <trkpt lat="39.603926" lon="-76.103788">
        <ele>62.444999</ele>
        <time>2024-07-13T08:54:08.000Z</time>
      </trkpt>
      <trkpt lat="39.60423" lon="-76.103449">
        <ele>65.194427</ele>
        <time>2024-07-13T08:54:12.000Z</time>
      </trkpt>
      <trkpt lat="39.604422" lon="-76.103101">
        <ele>66.808355</ele>
        <time>2024-07-13T08:54:16.000Z</time>
      </trkpt>
      <trkpt lat="39.604563" lon="-76.102745">
        <ele>68.152367</ele>
        <time>2024-07-13T08:54:19.000Z</time>
      </trkpt>
      <trkpt lat="39.604682" lon="-76.102025">
        <ele>70.507857</ele>
        <time>2024-07-13T08:54:25.000Z</time>
      </trkpt>
      <trkpt lat="39.604624" lon="-76.101277">
        <ele>72.913904</ele>
        <time>2024-07-13T08:54:31.000Z</time>
      </trkpt>
      <trkpt lat="39.604413" lon="-76.100704">
        <ele>72.639004</ele>
        <time>2024-07-13T08:54:36.000Z</time>
      </trkpt>
      <trkpt lat="39.60424" lon="-76.100376">
        <ele>71.900415</ele>
        <time>2024-07-13T08:54:39.000Z</time>
      </trkpt>
      <trkpt lat="39.60401" lon="-76.099894">
        <ele>70.88615</ele>
        <time>2024-07-13T08:54:44.000Z</time>
      </trkpt>
      <trkpt lat="39.603874" lon="-76.099596">
        <ele>70.252325</ele>
        <time>2024-07-13T08:54:47.000Z</time>
      </trkpt>
      <trkpt lat="39.603494" lon="-76.098556">
        <ele>68.683538</ele>
        <time>2024-07-13T08:54:57.000Z</time>
      </trkpt>
      <trkpt lat="39.603302" lon="-76.097979">
        <ele>68.071489</ele>
        <time>2024-07-13T08:55:02.000Z</time>
      </trkpt>
      <trkpt lat="39.602709" lon="-76.096048">
        <ele>70.138747</ele>
        <time>2024-07-13T08:55:20.000Z</time>
      </trkpt>
      <trkpt lat="39.602213" lon="-76.094779">
        <ele>74.857842</ele>
        <time>2024-07-13T08:55:32.000Z</time>
      </trkpt>
      <trkpt lat="39.601346" lon="-76.093253">
        <ele>84.487827</ele>
        <time>2024-07-13T08:55:48.000Z</time>
      </trkpt>
      <trkpt lat="39.601124" lon="-76.092937">
        <ele>86.575973</ele>
        <time>2024-07-13T08:55:52.000Z</time>
      </trkpt>
      <trkpt lat="39.600262" lon="-76.091659">
        <ele>93.836279</ele>
        <time>2024-07-13T08:56:07.000Z</time>
      </trkpt>
      <trkpt lat="39.600053" lon="-76.091164">
        <ele>96.325309</ele>
        <time>2024-07-13T08:56:12.000Z</time>
      </trkpt>
      <trkpt lat="39.599837" lon="-76.090457">
        <ele>98.094362</ele>
        <time>2024-07-13T08:56:19.000Z</time>
      </trkpt>
      <trkpt lat="39.597336" lon="-76.091457">
        <ele>104.386803</ele>
        <time>2024-07-13T08:56:48.000Z</time>
      </trkpt>
      <trkpt lat="39.596438" lon="-76.090018">
        <ele>105.819698</ele>
        <time>2024-07-13T08:57:04.000Z</time>
      </trkpt>
      <trkpt lat="39.595461" lon="-76.088642">
        <ele>105.003567</ele>
        <time>2024-07-13T08:57:20.000Z</time>
      </trkpt>
      <trkpt lat="39.594827" lon="-76.087846">
        <ele>103.276901</ele>
        <time>2024-07-13T08:57:30.000Z</time>
      </trkpt>
      <trkpt lat="39.594022" lon="-76.086809">
        <ele>97.44496</ele>
        <time>2024-07-13T08:57:43.000Z</time>
      </trkpt>
      <trkpt lat="39.591745" lon="-76.082898">
        <ele>76.92243</ele>
        <time>2024-07-13T08:58:25.000Z</time>
      </trkpt>
      <trkpt lat="39.591478" lon="-76.082506">
        <ele>75.49565</ele>
        <time>2024-07-13T08:58:29.000Z</time>
      </trkpt>
      <trkpt lat="39.591274" lon="-76.082339">
        <ele>74.645997</ele>
        <time>2024-07-13T08:58:32.000Z</time>
      </trkpt>
      <trkpt lat="39.590214" lon="-76.081813">
        <ele>76.600804</ele>
        <time>2024-07-13T08:58:45.000Z</time>
      </trkpt>
      <trkpt lat="39.589888" lon="-76.081653">
        <ele>77.371012</ele>
        <time>2024-07-13T08:58:49.000Z</time>
      </trkpt>
      <trkpt lat="39.589838" lon="-76.081632">
        <ele>77.508375</ele>
        <time>2024-07-13T08:58:50.000Z</time>
      </trkpt>
      <trkpt lat="39.589529" lon="-76.08148">
        <ele>78.244104</ele>
        <time>2024-07-13T08:58:54.000Z</time>
      </trkpt>
      <trkpt lat="39.589354" lon="-76.081406">
        <ele>78.311943</ele>
        <time>2024-07-13T08:58:56.000Z</time>
      </trkpt>
      <trkpt lat="39.588892" lon="-76.081164">
        <ele>78.122957</ele>
        <time>2024-07-13T08:59:02.000Z</time>
      </trkpt>
      <trkpt lat="39.588061" lon="-76.080696">
        <ele>77.773048</ele>
        <time>2024-07-13T08:59:12.000Z</time>
      </trkpt>
      <trkpt lat="39.587415" lon="-76.080414">
        <ele>75.719376</ele>
        <time>2024-07-13T08:59:20.000Z</time>
      </trkpt>
      <trkpt lat="39.587172" lon="-76.080339">
        <ele>74.510752</ele>
        <time>2024-07-13T08:59:23.000Z</time>
      </trkpt>
      <trkpt lat="39.587021" lon="-76.080279">
        <ele>73.813147</ele>
        <time>2024-07-13T08:59:25.000Z</time>
      </trkpt>
      <trkpt lat="39.586054" lon="-76.080285">
        <ele>69.331712</ele>
        <time>2024-07-13T08:59:36.000Z</time>
      </trkpt>
      <trkpt lat="39.585448" lon="-76.080296">
        <ele>65.622695</ele>
        <time>2024-07-13T08:59:43.000Z</time>
      </trkpt>
      <trkpt lat="39.584755" lon="-76.080371">
        <ele>61.443096</ele>
        <time>2024-07-13T08:59:51.000Z</time>
      </trkpt>
      <trkpt lat="39.584634" lon="-76.080394">
        <ele>60.704874</ele>
        <time>2024-07-13T08:59:52.000Z</time>
      </trkpt>
      <trkpt lat="39.583887" lon="-76.08042">
        <ele>56.852123</ele>
        <time>2024-07-13T09:00:00.000Z</time>
      </trkpt>
      <trkpt lat="39.583751" lon="-76.080423">
        <ele>56.281792</ele>
        <time>2024-07-13T09:00:02.000Z</time>
      </trkpt>
      <trkpt lat="39.58314" lon="-76.080408">
        <ele>53.632354</ele>
        <time>2024-07-13T09:00:09.000Z</time>
      </trkpt>
      <trkpt lat="39.58197" lon="-76.080766">
        <ele>46.91902</ele>
        <time>2024-07-13T09:00:22.000Z</time>
      </trkpt>
      <trkpt lat="39.580891" lon="-76.081593">
        <ele>38.035929</ele>
        <time>2024-07-13T09:00:36.000Z</time>
      </trkpt>
      <trkpt lat="39.580836" lon="-76.081638">
        <ele>37.482205</ele>
        <time>2024-07-13T09:00:37.000Z</time>
      </trkpt>
      <trkpt lat="39.5802" lon="-76.082174">
        <ele>30.728513</ele>
        <time>2024-07-13T09:00:45.000Z</time>
      </trkpt>
      <trkpt lat="39.580004" lon="-76.082292">
        <ele>28.702468</ele>
        <time>2024-07-13T09:00:47.000Z</time>
      </trkpt>
      <trkpt lat="39.579773" lon="-76.082367">
        <ele>26.509395</ele>
        <time>2024-07-13T09:00:50.000Z</time>
      </trkpt>
      <trkpt lat="39.579573" lon="-76.082396">
        <ele>24.739853</ele>
        <time>2024-07-13T09:00:52.000Z</time>
      </trkpt>
      <trkpt lat="39.579532" lon="-76.082391">
        <ele>24.395346</ele>
        <time>2024-07-13T09:00:52.000Z</time>
      </trkpt>
      <trkpt lat="39.579423" lon="-76.082424">
        <ele>23.460337</ele>
        <time>2024-07-13T09:00:53.000Z</time>
      </trkpt>
      <trkpt lat="39.578582" lon="-76.082686">
        <ele>18.341674</ele>
        <time>2024-07-13T09:01:03.000Z</time>
      </trkpt>
      <trkpt lat="39.577469" lon="-76.083217">
        <ele>12.707045</ele>
        <time>2024-07-13T09:01:16.000Z</time>
      </trkpt>
      <trkpt lat="39.577336" lon="-76.083228">
        <ele>12.517204</ele>
        <time>2024-07-13T09:01:17.000Z</time>
      </trkpt>
      <trkpt lat="39.574245" lon="-76.080587">
        <ele>8.941883</ele>
        <time>2024-07-13T09:01:58.000Z</time>
      </trkpt>
      <trkpt lat="39.573556" lon="-76.080117">
        <ele>9.052035</ele>
        <time>2024-07-13T09:02:07.000Z</time>
      </trkpt>
      <trkpt lat="39.570756" lon="-76.078425">
        <ele>9.491155</ele>
        <time>2024-07-13T09:02:41.000Z</time>
      </trkpt>
      <trkpt lat="39.569916" lon="-76.077938">
        <ele>9.061593</ele>
        <time>2024-07-13T09:02:51.000Z</time>
      </trkpt>
      <trkpt lat="39.569281" lon="-76.078388">
        <ele>8.68645</ele>
        <time>2024-07-13T09:02:59.000Z</time>
      </trkpt>
      <trkpt lat="39.568945" lon="-76.078454">
        <ele>8.497826</ele>
        <time>2024-07-13T09:03:03.000Z</time>
      </trkpt>
      <trkpt lat="39.56746" lon="-76.07836">
        <ele>7.846165</ele>
        <time>2024-07-13T09:03:20.000Z</time>
      </trkpt>
      <trkpt lat="39.567248" lon="-76.078358">
        <ele>7.8196</ele>
        <time>2024-07-13T09:03:22.000Z</time>
      </trkpt>
      <trkpt lat="39.566817" lon="-76.078365">
        <ele>7.760312</ele>
        <time>2024-07-13T09:03:27.000Z</time>
      </trkpt>
      <trkpt lat="39.566664" lon="-76.078384">
        <ele>7.739453</ele>
        <time>2024-07-13T09:03:29.000Z</time>
      </trkpt>
      <trkpt lat="39.564901" lon="-76.078623">
        <ele>7.464277</ele>
        <time>2024-07-13T09:03:49.000Z</time>
      </trkpt>
      <trkpt lat="39.56335" lon="-76.079023">
        <ele>7.275716</ele>
        <time>2024-07-13T09:04:07.000Z</time>
      </trkpt>
      <trkpt lat="39.562933" lon="-76.079088">
        <ele>7.236753</ele>
        <time>2024-07-13T09:04:12.000Z</time>
      </trkpt>
      <trkpt lat="39.56216" lon="-76.079147">
        <ele>7.134261</ele>
        <time>2024-07-13T09:04:21.000Z</time>
      </trkpt>
      <trkpt lat="39.561599" lon="-76.079206">
        <ele>7.041121</ele>
        <time>2024-07-13T09:04:27.000Z</time>
      </trkpt>
      <trkpt lat="39.560658" lon="-76.079275">
        <ele>6.922776</ele>
        <time>2024-07-13T09:04:37.000Z</time>
      </trkpt>
      <trkpt lat="39.560396" lon="-76.079248">
        <ele>6.972757</ele>
        <time>2024-07-13T09:04:40.000Z</time>
      </trkpt>
      <trkpt lat="39.559237" lon="-76.078836">
        <ele>7.20909</ele>
        <time>2024-07-13T09:04:53.000Z</time>
      </trkpt>
      <trkpt lat="39.558738" lon="-76.078641">
        <ele>7.527048</ele>
        <time>2024-07-13T09:04:59.000Z</time>
      </trkpt>
      <trkpt lat="39.558292" lon="-76.078285">
        <ele>8.036559</ele>
        <time>2024-07-13T09:05:05.000Z</time>
      </trkpt>
      <trkpt lat="39.557767" lon="-76.077869">
        <ele>8.625789</ele>
        <time>2024-07-13T09:05:12.000Z</time>
      </trkpt>
      <trkpt lat="39.557316" lon="-76.077506">
        <ele>9.185959</ele>
        <time>2024-07-13T09:05:18.000Z</time>
      </trkpt>
      <trkpt lat="39.557279" lon="-76.077474">
        <ele>9.257814</ele>
        <time>2024-07-13T09:05:18.000Z</time>
      </trkpt>
      <trkpt lat="39.557412" lon="-76.077155">
        <ele>9.63812</ele>
        <time>2024-07-13T09:05:21.000Z</time>
      </trkpt>
      <trkpt lat="39.557461" lon="-76.077078">
        <ele>9.74106</ele>
        <time>2024-07-13T09:05:22.000Z</time>
      </trkpt>
      <trkpt lat="39.557713" lon="-76.076489">
        <ele>10.454491</ele>
        <time>2024-07-13T09:05:28.000Z</time>
      </trkpt>
      <trkpt lat="39.557956" lon="-76.075966">
        <ele>11.076771</ele>
        <time>2024-07-13T09:05:33.000Z</time>
      </trkpt>
      <trkpt lat="39.558041" lon="-76.075771">
        <ele>11.328491</ele>
        <time>2024-07-13T09:05:35.000Z</time>
      </trkpt>
      <trkpt lat="39.55843" lon="-76.074964">
        <ele>12.045406</ele>
        <time>2024-07-13T09:05:43.000Z</time>
      </trkpt>
      <trkpt lat="39.558888" lon="-76.073966">
        <ele>12.876365</ele>
        <time>2024-07-13T09:05:53.000Z</time>
      </trkpt>
      <trkpt lat="39.559031" lon="-76.073658">
        <ele>13.124653</ele>
        <time>2024-07-13T09:05:56.000Z</time>
      </trkpt>
      <trkpt lat="39.559163" lon="-76.073359">
        <ele>13.251672</ele>
        <time>2024-07-13T09:05:59.000Z</time>
      </trkpt>
      <trkpt lat="39.559345" lon="-76.072985">
        <ele>13.396891</ele>
        <time>2024-07-13T09:06:03.000Z</time>
      </trkpt>
      <trkpt lat="39.559481" lon="-76.072684">
        <ele>13.525276</ele>
        <time>2024-07-13T09:06:06.000Z</time>
      </trkpt>
      <trkpt lat="39.559667" lon="-76.072283">
        <ele>13.684694</ele>
        <time>2024-07-13T09:06:10.000Z</time>
      </trkpt>
      <trkpt lat="39.559711" lon="-76.072175">
        <ele>13.724901</ele>
        <time>2024-07-13T09:06:11.000Z</time>
      </trkpt>
      <trkpt lat="39.559867" lon="-76.071837">
        <ele>13.861205</ele>
        <time>2024-07-13T09:06:14.000Z</time>
      </trkpt>
      <trkpt lat="39.55995" lon="-76.071682">
        <ele>13.931325</ele>
        <time>2024-07-13T09:06:16.000Z</time>
      </trkpt>
      <trkpt lat="39.559998" lon="-76.071572">
        <ele>13.976584</ele>
        <time>2024-07-13T09:06:17.000Z</time>
      </trkpt>
      <trkpt lat="39.560067" lon="-76.071445">
        <ele>14.030503</ele>
        <time>2024-07-13T09:06:18.000Z</time>
      </trkpt>
      <trkpt lat="39.560122" lon="-76.071291">
        <ele>14.097103</ele>
        <time>2024-07-13T09:06:19.000Z</time>
      </trkpt>
      <trkpt lat="39.560143" lon="-76.071263">
        <ele>14.110215</ele>
        <time>2024-07-13T09:06:19.000Z</time>
      </trkpt>
      <trkpt lat="39.560197" lon="-76.071124">
        <ele>14.17219</ele>
        <time>2024-07-13T09:06:20.000Z</time>
      </trkpt>
      <trkpt lat="39.560229" lon="-76.071057">
        <ele>14.200478</ele>
        <time>2024-07-13T09:06:21.000Z</time>
      </trkpt>
      <trkpt lat="39.560309" lon="-76.070863">
        <ele>14.283861</ele>
        <time>2024-07-13T09:06:23.000Z</time>
      </trkpt>
      <trkpt lat="39.560349" lon="-76.070808">
        <ele>14.310023</ele>
        <time>2024-07-13T09:06:24.000Z</time>
      </trkpt>
      <trkpt lat="39.560397" lon="-76.070677">
        <ele>14.366125</ele>
        <time>2024-07-13T09:06:25.000Z</time>
      </trkpt>
      <trkpt lat="39.560728" lon="-76.069978">
        <ele>14.67098</ele>
        <time>2024-07-13T09:06:32.000Z</time>
      </trkpt>
      <trkpt lat="39.560753" lon="-76.069912">
        <ele>14.694712</ele>
        <time>2024-07-13T09:06:33.000Z</time>
      </trkpt>
      <trkpt lat="39.561195" lon="-76.068978">
        <ele>14.543166</ele>
        <time>2024-07-13T09:06:42.000Z</time>
      </trkpt>
      <trkpt lat="39.5614" lon="-76.068563">
        <ele>14.39544</ele>
        <time>2024-07-13T09:06:46.000Z</time>
      </trkpt>
      <trkpt lat="39.561944" lon="-76.067354">
        <ele>14.096068</ele>
        <time>2024-07-13T09:06:58.000Z</time>
      </trkpt>
      <trkpt lat="39.562019" lon="-76.067172">
        <ele>14.103546</ele>
        <time>2024-07-13T09:07:00.000Z</time>
      </trkpt>
      <trkpt lat="39.562116" lon="-76.066985">
        <ele>14.111258</ele>
        <time>2024-07-13T09:07:02.000Z</time>
      </trkpt>
      <trkpt lat="39.562487" lon="-76.06617">
        <ele>14.144337</ele>
        <time>2024-07-13T09:07:10.000Z</time>
      </trkpt>
      <trkpt lat="39.562585" lon="-76.065994">
        <ele>14.151751</ele>
        <time>2024-07-13T09:07:12.000Z</time>
      </trkpt>
      <trkpt lat="39.562666" lon="-76.065802">
        <ele>14.159691</ele>
        <time>2024-07-13T09:07:14.000Z</time>
      </trkpt>
      <trkpt lat="39.56299" lon="-76.065039">
        <ele>14.576306</ele>
        <time>2024-07-13T09:07:21.000Z</time>
      </trkpt>
      <trkpt lat="39.562376" lon="-76.06474">
        <ele>15.06228</ele>
        <time>2024-07-13T09:07:28.000Z</time>
      </trkpt>
      <trkpt lat="39.562199" lon="-76.064667">
        <ele>15.196711</ele>
        <time>2024-07-13T09:07:30.000Z</time>
      </trkpt>
      <trkpt lat="39.561036" lon="-76.064096">
        <ele>15.067367</ele>
        <time>2024-07-13T09:07:44.000Z</time>
      </trkpt>
      <trkpt lat="39.560251" lon="-76.063716">
        <ele>14.662898</ele>
        <time>2024-07-13T09:07:53.000Z</time>
      </trkpt>
      <trkpt lat="39.558755" lon="-76.062986">
        <ele>11.09563</ele>
        <time>2024-07-13T09:08:11.000Z</time>
      </trkpt>
      <trkpt lat="39.558256" lon="-76.062593">
        <ele>9.94414</ele>
        <time>2024-07-13T09:08:17.000Z</time>
      </trkpt>
      <trkpt lat="39.55793" lon="-76.06301">
        <ele>9.235564</ele>
        <time>2024-07-13T09:08:22.000Z</time>
      </trkpt>
      <trkpt lat="39.557431" lon="-76.06362">
        <ele>8.160003</ele>
        <time>2024-07-13T09:08:30.000Z</time>
      </trkpt>
      <trkpt lat="39.557112" lon="-76.063841">
        <ele>7.624702</ele>
        <time>2024-07-13T09:08:34.000Z</time>
      </trkpt>
      <trkpt lat="39.557003" lon="-76.063902">
        <ele>7.715106</ele>
        <time>2024-07-13T09:08:35.000Z</time>
      </trkpt>
      <trkpt lat="39.556688" lon="-76.063936">
        <ele>7.968387</ele>
        <time>2024-07-13T09:08:39.000Z</time>
      </trkpt>
      <trkpt lat="39.556172" lon="-76.063944">
        <ele>8.413114</ele>
        <time>2024-07-13T09:08:45.000Z</time>
      </trkpt>
      <trkpt lat="39.555964" lon="-76.06405">
        <ele>8.596352</ele>
        <time>2024-07-13T09:08:47.000Z</time>
      </trkpt>
      <trkpt lat="39.555684" lon="-76.063477">
        <ele>9.035738</ele>
        <time>2024-07-13T09:08:53.000Z</time>
      </trkpt>
      <trkpt lat="39.55466" lon="-76.06076">
        <ele>9.958962</ele>
        <time>2024-07-13T09:09:19.000Z</time>
      </trkpt>
      <trkpt lat="39.554952" lon="-76.059522">
        <ele>9.30661</ele>
        <time>2024-07-13T09:09:30.000Z</time>
      </trkpt>
      <trkpt lat="39.555015" lon="-76.05888">
        <ele>8.914412</ele>
        <time>2024-07-13T09:09:36.000Z</time>
      </trkpt>
      <trkpt lat="39.554976" lon="-76.058585">
        <ele>8.641292</ele>
        <time>2024-07-13T09:09:39.000Z</time>
      </trkpt>
      <trkpt lat="39.554616" lon="-76.057439">
        <ele>7.539855</ele>
        <time>2024-07-13T09:09:50.000Z</time>
      </trkpt>
      <trkpt lat="39.554517" lon="-76.056884">
        <ele>7.031445</ele>
        <time>2024-07-13T09:09:55.000Z</time>
      </trkpt>
      <trkpt lat="39.554291" lon="-76.056448">
        <ele>6.719117</ele>
        <time>2024-07-13T09:10:00.000Z</time>
      </trkpt>
      <trkpt lat="39.553523" lon="-76.055845">
        <ele>6.055542</ele>
        <time>2024-07-13T09:10:10.000Z</time>
      </trkpt>
      <trkpt lat="39.55335" lon="-76.055647">
        <ele>5.892476</ele>
        <time>2024-07-13T09:10:13.000Z</time>
      </trkpt>
      <trkpt lat="39.553093" lon="-76.054986">
        <ele>5.414711</ele>
        <time>2024-07-13T09:10:19.000Z</time>
      </trkpt>
      <trkpt lat="39.553094" lon="-76.054538">
        <ele>5.109058</ele>
        <time>2024-07-13T09:10:23.000Z</time>
      </trkpt>
      <trkpt lat="39.552846" lon="-76.054168">
        <ele>4.756061</ele>
        <time>2024-07-13T09:10:27.000Z</time>
      </trkpt>
      <trkpt lat="39.552461" lon="-76.053736">
        <ele>4.282802</ele>
        <time>2024-07-13T09:10:33.000Z</time>
      </trkpt>
      <trkpt lat="39.552102" lon="-76.05354">
        <ele>3.998469</ele>
        <time>2024-07-13T09:10:37.000Z</time>
      </trkpt>
      <trkpt lat="39.55191" lon="-76.053176">
        <ele>3.943368</ele>
        <time>2024-07-13T09:10:41.000Z</time>
      </trkpt>
      <trkpt lat="39.551798" lon="-76.053094">
        <ele>3.921867</ele>
        <time>2024-07-13T09:10:42.000Z</time>
      </trkpt>
      <trkpt lat="39.551282" lon="-76.053125">
        <ele>3.837988</ele>
        <time>2024-07-13T09:10:48.000Z</time>
      </trkpt>
      <trkpt lat="39.551207" lon="-76.053166">
        <ele>3.825565</ele>
        <time>2024-07-13T09:10:49.000Z</time>
      </trkpt>
      <trkpt lat="39.551122" lon="-76.053404">
        <ele>3.791084</ele>
        <time>2024-07-13T09:10:51.000Z</time>
      </trkpt>
      <trkpt lat="39.551044" lon="-76.053631">
        <ele>3.760263</ele>
        <time>2024-07-13T09:10:53.000Z</time>
      </trkpt>
      <trkpt lat="39.550911" lon="-76.05379">
        <ele>3.729453</ele>
        <time>2024-07-13T09:10:55.000Z</time>
      </trkpt>
      <trkpt lat="39.550612" lon="-76.053847">
        <ele>3.74211</ele>
        <time>2024-07-13T09:10:58.000Z</time>
      </trkpt>
      <trkpt lat="39.550359" lon="-76.053703">
        <ele>3.769336</ele>
        <time>2024-07-13T09:11:01.000Z</time>
      </trkpt>
      <trkpt lat="39.550214" lon="-76.053262">
        <ele>3.804216</ele>
        <time>2024-07-13T09:11:05.000Z</time>
      </trkpt>
      <trkpt lat="39.550215" lon="-76.052687">
        <ele>3.846164</ele>
        <time>2024-07-13T09:11:10.000Z</time>
      </trkpt>
      <trkpt lat="39.550141" lon="-76.052504">
        <ele>3.861041</ele>
        <time>2024-07-13T09:11:12.000Z</time>
      </trkpt>
      <trkpt lat="39.549337" lon="-76.052087">
        <ele>3.90048996414</ele>
        <time>2024-07-13T09:11:22.000Z</time>
      </trkpt>
      <trkpt lat="39.549087" lon="-76.051722">
        <ele>3.91763992658</ele>
        <time>2024-07-13T09:11:26.000Z</time>
      </trkpt>
      <trkpt lat="39.548922" lon="-76.051091">
        <ele>3.94104603927</ele>
        <time>2024-07-13T09:11:32.000Z</time>
      </trkpt>
      <trkpt lat="39.548811" lon="-76.050978">
        <ele>3.94747485434</ele>
        <time>2024-07-13T09:11:34.000Z</time>
      </trkpt>
      <trkpt lat="39.548413" lon="-76.050843">
        <ele>3.96621676547</ele>
        <time>2024-07-13T09:11:39.000Z</time>
      </trkpt>
    </trkseg>
  </trk>
</gpx>

<!--
Performance optimized by W3 Total Cache. Learn more: https://www.boldgrid.com/w3-total-cache/?utm_source=w3tc&utm_medium=footer_comment&utm_campaign=free_plugin

Page Caching using Disk: Enhanced{w3tc_pagecache_reject_reason} 

Served from: www.aquabike.world @ 2026-05-10 15:00:06 by W3 Total Cache
-->